Time,TemperatureF,DewpointF,PressureIn,WindDirection,WindDirectionDegrees,WindSpeedMPH,WindSpeedGustMPH,Humidity,HourlyPrecipIn,Conditions,Clouds,dailyrainin,SoftwareType,DateUTC
2013-08-01 00:00:00,85.3,49.4,29.56,North,0,10.4,10.4,29,0.00,CLR,,0.00,WeatherDisplay:10.37,2013-07-31 21:00:00,
2013-08-01 00:01:00,85.3,49.4,29.56,NNE,22,16.1,16.1,29,0.00,CLR,,0.00,WeatherDisplay:10.37,2013-07-31 21:01:00,
2013-08-01 00:03:00,85.3,49.4,29.56,NNE,22,10.0,10.0,29,0.00,CLR,,0.00,WeatherDisplay:10.37,2013-07-31 21:03:00,
2013-08-01 00:05:00,85.5,49.6,29.56,NNE,22,12.7,12.7,29,0.00,CLR,,0.00,WeatherDisplay:10.37,2013-07-31 21:05:00,
2013-08-01 00:07:00,85.5,49.6,29.56,NNE,22,8.1,8.1,29,0.00,CLR,,0.00,WeatherDisplay:10.37,2013-07-31 21:07:00,
2013-08-01 00:08:00,85.5,49.6,29.56,NNW,338,8.1,8.1,29,0.00,CLR,,0.00,WeatherDisplay:10.37,2013-07-31 21:08:00,
2013-08-01 00:10:00,85.5,49.6,29.56,NE,45,10.4,10.4,29,0.00,CLR,,0.00,WeatherDisplay:10.37,2013-07-31 21:10:00,
2013-08-01 00:12:00,85.5,49.6,29.56,NNE,22,12.7,12.7,29,0.00,CLR,,0.00,WeatherDisplay:10.37,2013-07-31 21:12:00,
2013-08-01 00:13:00,85.5,49.6,29.56,NNW,338,13.8,13.8,29,0.00,CLR,,0.00,WeatherDisplay:10.37,2013-07-31 21:13:00,
2013-08-01 00:14:00,85.5,49.6,29.56,NNW,338,12.7,12.7,29,0.00,CLR,,0.00,WeatherDisplay:10.37,2013-07-31 21:14:00,
2013-08-01 00:15:00,85.5,49.6,29.56,NNE,22,9.2,9.2,29,0.00,CLR,,0.00,WeatherDisplay:10.37,2013-07-31 21:15:00,
2013-08-01 00:16:00,85.5,49.6,29.56,NE,45,12.7,12.7,29,0.00,CLR,,0.00,WeatherDisplay:10.37,2013-07-31 21:16:00,
2013-08-01 00:18:00,85.5,49.6,29.56,NNE,22,13.8,13.8,29,0.00,CLR,,0.00,WeatherDisplay:10.37,2013-07-31 21:18:00,
2013-08-01 00:19:00,85.5,49.6,29.56,NNE,22,8.1,8.1,29,0.00,CLR,,0.00,WeatherDisplay:10.37,2013-07-31 21:19:00,
2013-08-01 00:20:00,85.5,49.6,29.56,ENE,68,16.3,16.3,29,0.00,CLR,,0.00,WeatherDisplay:10.37,2013-07-31 21:20:00,
2013-08-01 00:22:00,85.5,49.6,29.56,NE,45,17.3,17.3,29,0.00,CLR,,0.00,WeatherDisplay:10.37,2013-07-31 21:22:00,
2013-08-01 00:23:00,85.5,49.6,29.56,NE,45,11.5,11.5,29,0.00,CLR,,0.00,WeatherDisplay:10.37,2013-07-31 21:23:00,
2013-08-01 00:24:00,85.5,49.6,29.56,North,0,11.5,11.5,29,0.00,CLR,,0.00,WeatherDisplay:10.37,2013-07-31 21:24:00,
2013-08-01 00:25:00,85.5,49.6,29.56,NNE,22,11.5,11.5,29,0.00,CLR,,0.00,WeatherDisplay:10.37,2013-07-31 21:25:00,
2013-08-01 00:27:00,85.5,49.6,29.56,NNE,22,12.7,12.7,29,0.00,CLR,,0.00,WeatherDisplay:10.37,2013-07-31 21:27:00,
2013-08-01 00:28:00,85.5,49.6,29.56,NE,45,12.7,12.7,29,0.00,CLR,,0.00,WeatherDisplay:10.37,2013-07-31 21:28:00,
2013-08-01 00:29:00,85.5,49.6,29.56,NNE,22,10.4,10.4,29,0.00,CLR,,0.00,WeatherDisplay:10.37,2013-07-31 21:29:00,
2013-08-01 00:30:00,85.5,49.6,29.56,NW,315,10.4,10.4,29,0.00,CLR,,0.00,WeatherDisplay:10.37,2013-07-31 21:30:00,
2013-08-01 00:31:00,85.3,49.4,29.56,North,0,10.4,10.4,29,0.00,CLR,,0.00,WeatherDisplay:10.37,2013-07-31 21:31:00,
2013-08-01 00:32:00,85.3,49.4,29.56,NNE,22,10.4,10.4,29,0.00,CLR,,0.00,WeatherDisplay:10.37,2013-07-31 21:32:00,
2013-08-01 00:33:00,85.3,49.4,29.56,ENE,68,8.1,8.1,29,0.00,CLR,,0.00,WeatherDisplay:10.37,2013-07-31 21:33:00,
2013-08-01 00:34:00,85.3,50.3,29.56,NNE,22,8.1,8.1,30,0.00,CLR,,0.00,WeatherDisplay:10.37,2013-07-31 21:34:00,
2013-08-01 00:35:00,85.1,50.2,29.56,NNE,22,8.1,8.1,30,0.00,CLR,,0.00,WeatherDisplay:10.37,2013-07-31 21:35:00,
2013-08-01 00:36:00,85.1,50.2,29.56,NNW,338,8.1,8.1,30,0.00,CLR,,0.00,WeatherDisplay:10.37,2013-07-31 21:36:00,
2013-08-01 00:38:00,85.1,50.2,29.56,NW,315,6.0,6.0,30,0.00,CLR,,0.00,WeatherDisplay:10.37,2013-07-31 21:38:00,
2013-08-01 00:39:00,85.1,50.2,29.56,NW,315,10.4,10.4,30,0.00,CLR,,0.00,WeatherDisplay:10.37,2013-07-31 21:39:00,
2013-08-01 00:40:00,85.1,50.2,29.56,NNE,22,9.2,9.2,30,0.00,CLR,,0.00,WeatherDisplay:10.37,2013-07-31 21:40:00,
2013-08-01 00:42:00,84.9,50.0,29.56,NNW,338,6.9,6.9,30,0.00,CLR,,0.00,WeatherDisplay:10.37,2013-07-31 21:42:00,
2013-08-01 00:43:00,84.9,50.0,29.56,NNW,338,9.2,9.2,30,0.00,CLR,,0.00,WeatherDisplay:10.37,2013-07-31 21:43:00,
2013-08-01 00:44:00,84.9,50.0,29.56,NNW,338,5.8,5.8,30,0.00,CLR,,0.00,WeatherDisplay:10.37,2013-07-31 21:44:00,
2013-08-01 00:45:00,84.9,50.0,29.56,NNE,22,10.4,10.4,30,0.00,CLR,,0.00,WeatherDisplay:10.37,2013-07-31 21:45:00,
2013-08-01 00:47:00,84.9,50.0,29.56,NNE,22,10.4,10.4,30,0.00,CLR,,0.00,WeatherDisplay:10.37,2013-07-31 21:47:00,
2013-08-01 00:48:00,84.9,50.0,29.56,NNW,338,10.4,10.4,30,0.00,CLR,,0.00,WeatherDisplay:10.37,2013-07-31 21:48:00,
2013-08-01 00:49:00,84.9,50.0,29.56,NNW,338,12.8,12.8,30,0.00,CLR,,0.00,WeatherDisplay:10.37,2013-07-31 21:49:00,
2013-08-01 00:50:00,84.9,50.0,29.56,NNE,22,12.7,12.7,30,0.00,CLR,,0.00,WeatherDisplay:10.37,2013-07-31 21:50:00,
2013-08-01 00:52:00,84.9,50.0,29.56,NW,315,8.7,8.7,30,0.00,CLR,,0.00,WeatherDisplay:10.37,2013-07-31 21:52:00,
2013-08-01 00:53:00,84.9,50.0,29.56,NNW,338,9.2,9.2,30,0.00,CLR,,0.00,WeatherDisplay:10.37,2013-07-31 21:53:00,
2013-08-01 00:54:00,84.7,49.9,29.56,NW,315,8.1,8.1,30,0.00,CLR,,0.00,WeatherDisplay:10.37,2013-07-31 21:54:00,
2013-08-01 00:56:00,84.7,49.9,29.56,ENE,68,11.5,11.5,30,0.00,CLR,,0.00,WeatherDisplay:10.37,2013-07-31 21:56:00,
2013-08-01 00:58:00,84.7,49.9,29.56,NNW,338,11.5,11.5,30,0.00,CLR,,0.00,WeatherDisplay:10.37,2013-07-31 21:58:00,
2013-08-01 00:59:00,84.7,49.9,29.56,NNE,22,8.5,9.2,30,0.00,CLR,,0.00,WeatherDisplay:10.37,2013-07-31 21:59:00,
2013-08-01 01:00:00,84.7,49.9,29.56,NNW,338,8.1,9.2,30,0.00,CLR,,0.00,WeatherDisplay:10.37,2013-07-31 22:00:00,
2013-08-01 01:02:00,84.6,49.7,29.56,NNW,338,9.2,9.2,30,0.00,CLR,,0.00,WeatherDisplay:10.37,2013-07-31 22:02:00,
2013-08-01 01:03:00,84.6,49.7,29.56,NNW,338,10.5,10.5,30,0.00,CLR,,0.00,WeatherDisplay:10.37,2013-07-31 22:03:00,
2013-08-01 01:04:00,84.6,49.7,29.56,NNE,22,10.4,10.4,30,0.00,CLR,,0.00,WeatherDisplay:10.37,2013-07-31 22:04:00,
2013-08-01 01:05:00,84.6,49.7,29.56,NNE,22,9.2,9.2,30,0.00,CLR,,0.00,WeatherDisplay:10.37,2013-07-31 22:05:00,
2013-08-01 01:08:00,84.6,49.7,29.56,NNW,338,13.8,13.8,30,0.00,CLR,,0.00,WeatherDisplay:10.37,2013-07-31 22:08:00,
2013-08-01 01:09:00,84.6,49.7,29.56,NNW,338,8.7,8.7,30,0.00,CLR,,0.00,WeatherDisplay:10.37,2013-07-31 22:09:00,
2013-08-01 01:10:00,84.6,49.7,29.56,NNE,22,6.9,6.9,30,0.00,CLR,,0.00,WeatherDisplay:10.37,2013-07-31 22:10:00,
2013-08-01 01:13:00,84.4,49.6,29.56,North,0,10.4,10.4,30,0.00,CLR,,0.00,WeatherDisplay:10.37,2013-07-31 22:13:00,
2013-08-01 01:14:00,84.4,49.6,29.56,NNW,338,10.4,10.4,30,0.00,CLR,,0.00,WeatherDisplay:10.37,2013-07-31 22:14:00,
2013-08-01 01:15:00,84.4,49.6,29.56,NNW,338,8.1,8.1,30,0.00,CLR,,0.00,WeatherDisplay:10.37,2013-07-31 22:15:00,
2013-08-01 01:16:00,84.4,49.6,29.56,ENE,68,8.1,8.1,30,0.00,CLR,,0.00,WeatherDisplay:10.37,2013-07-31 22:16:00,
2013-08-01 01:18:00,84.2,49.4,29.56,North,0,5.8,5.8,30,0.00,CLR,,0.00,WeatherDisplay:10.37,2013-07-31 22:18:00,
2013-08-01 01:19:00,84.2,49.4,29.56,NNW,338,8.1,8.1,30,0.00,CLR,,0.00,WeatherDisplay:10.37,2013-07-31 22:19:00,
2013-08-01 01:20:00,84.2,49.4,29.56,NNW,338,8.1,8.1,30,0.00,CLR,,0.00,WeatherDisplay:10.37,2013-07-31 22:20:00,
2013-08-01 01:21:00,84.2,49.4,29.56,NNW,338,6.9,6.9,30,0.00,CLR,,0.00,WeatherDisplay:10.37,2013-07-31 22:21:00,
2013-08-01 01:23:00,84.0,49.2,29.56,WNW,292,5.8,5.8,30,0.00,CLR,,0.00,WeatherDisplay:10.37,2013-07-31 22:23:00,
2013-08-01 01:25:00,84.0,50.1,29.56,North,0,6.9,6.9,31,0.00,CLR,,0.00,WeatherDisplay:10.37,2013-07-31 22:25:00,
2013-08-01 01:26:00,84.0,50.1,29.56,NNE,22,3.5,3.5,31,0.00,CLR,,0.00,WeatherDisplay:10.37,2013-07-31 22:26:00,
2013-08-01 01:28:00,84.0,50.1,29.56,NNW,338,2.9,2.9,31,0.00,CLR,,0.00,WeatherDisplay:10.37,2013-07-31 22:28:00,
2013-08-01 01:30:00,84.0,50.1,29.56,NNW,338,4.9,4.9,31,0.00,CLR,,0.00,WeatherDisplay:10.37,2013-07-31 22:30:00,
2013-08-01 01:31:00,83.8,50.0,29.56,NNE,22,8.1,8.1,31,0.00,CLR,,0.00,WeatherDisplay:10.37,2013-07-31 22:31:00,
2013-08-01 01:33:00,83.8,50.0,29.56,NNW,338,3.5,3.5,31,0.00,CLR,,0.00,WeatherDisplay:10.37,2013-07-31 22:33:00,
2013-08-01 01:35:00,83.8,50.0,29.56,NW,315,5.8,5.8,31,0.00,CLR,,0.00,WeatherDisplay:10.37,2013-07-31 22:35:00,
2013-08-01 01:37:00,83.7,49.8,29.56,NW,315,3.5,3.5,31,0.00,CLR,,0.00,WeatherDisplay:10.37,2013-07-31 22:37:00,
2013-08-01 01:38:00,83.7,49.8,29.56,NNW,338,2.4,2.4,31,0.00,CLR,,0.00,WeatherDisplay:10.37,2013-07-31 22:38:00,
2013-08-01 01:40:00,83.7,49.8,29.56,NNW,338,2.3,2.3,31,0.00,CLR,,0.00,WeatherDisplay:10.37,2013-07-31 22:40:00,
2013-08-01 01:43:00,83.7,49.8,29.56,North,0,4.7,4.7,31,0.00,CLR,,0.00,WeatherDisplay:10.37,2013-07-31 22:43:00,
2013-08-01 01:44:00,83.7,49.8,29.56,NW,315,4.6,4.6,31,0.00,CLR,,0.00,WeatherDisplay:10.37,2013-07-31 22:44:00,
2013-08-01 01:45:00,83.7,49.8,29.56,NNW,338,4.6,4.6,31,0.00,CLR,,0.00,WeatherDisplay:10.37,2013-07-31 22:45:00,
2013-08-01 01:46:00,83.7,49.8,29.56,NW,315,4.6,4.6,31,0.00,CLR,,0.00,WeatherDisplay:10.37,2013-07-31 22:46:00,
2013-08-01 01:48:00,83.7,49.8,29.56,NNW,338,5.8,5.8,31,0.00,CLR,,0.00,WeatherDisplay:10.37,2013-07-31 22:48:00,
2013-08-01 01:49:00,83.7,49.8,29.56,NNE,22,2.3,3.1,31,0.00,CLR,,0.00,WeatherDisplay:10.37,2013-07-31 22:49:00,
2013-08-01 01:50:00,83.8,50.0,29.56,WSW,248,3.5,3.5,31,0.00,CLR,,0.00,WeatherDisplay:10.37,2013-07-31 22:50:00,
2013-08-01 01:51:00,83.8,50.0,29.56,WSW,248,3.5,3.5,31,0.00,CLR,,0.00,WeatherDisplay:10.37,2013-07-31 22:51:00,
2013-08-01 01:53:00,83.8,50.0,29.56,NW,315,4.6,4.6,31,0.00,CLR,,0.00,WeatherDisplay:10.37,2013-07-31 22:53:00,
2013-08-01 01:54:00,83.8,50.0,29.56,WNW,292,3.5,3.5,31,0.00,CLR,,0.00,WeatherDisplay:10.37,2013-07-31 22:54:00,
2013-08-01 01:56:00,83.8,50.0,29.56,NNW,338,3.5,3.5,31,0.00,CLR,,0.00,WeatherDisplay:10.37,2013-07-31 22:56:00,
2013-08-01 01:59:00,83.8,50.0,29.56,NNW,338,8.1,8.1,31,0.00,CLR,,0.00,WeatherDisplay:10.37,2013-07-31 22:59:00,
2013-08-01 02:01:00,83.8,50.0,29.56,WNW,292,3.5,3.5,31,0.00,CLR,,0.00,WeatherDisplay:10.37,2013-07-31 23:01:00,
2013-08-01 02:02:00,83.8,50.0,29.56,WNW,292,3.8,3.8,31,0.00,CLR,,0.00,WeatherDisplay:10.37,2013-07-31 23:02:00,
2013-08-01 02:04:00,84.0,50.1,29.56,NW,315,3.5,3.5,31,0.00,CLR,,0.00,WeatherDisplay:10.37,2013-07-31 23:04:00,
2013-08-01 02:06:00,83.8,50.0,29.56,WNW,292,3.5,3.5,31,0.00,CLR,,0.00,WeatherDisplay:10.37,2013-07-31 23:06:00,
2013-08-01 02:07:00,83.8,50.0,29.56,WNW,292,3.5,3.5,31,0.00,CLR,,0.00,WeatherDisplay:10.37,2013-07-31 23:07:00,
2013-08-01 02:09:00,83.8,50.0,29.53,NNW,338,3.5,3.5,31,0.00,CLR,,0.00,WeatherDisplay:10.37,2013-07-31 23:09:00,
2013-08-01 02:10:00,83.8,50.0,29.53,NNW,338,5.6,5.6,31,0.00,CLR,,0.00,WeatherDisplay:10.37,2013-07-31 23:10:00,
2013-08-01 02:12:00,83.8,50.0,29.53,West,270,4.7,4.7,31,0.00,CLR,,0.00,WeatherDisplay:10.37,2013-07-31 23:12:00,
2013-08-01 02:14:00,83.7,49.8,29.53,NNW,338,5.8,5.8,31,0.00,CLR,,0.00,WeatherDisplay:10.37,2013-07-31 23:14:00,
2013-08-01 02:15:00,83.7,50.7,29.53,NNW,338,5.8,5.8,32,0.00,CLR,,0.00,WeatherDisplay:10.37,2013-07-31 23:15:00,
2013-08-01 02:17:00,83.7,50.7,29.53,NW,315,4.6,4.6,32,0.00,CLR,,0.00,WeatherDisplay:10.37,2013-07-31 23:17:00,
2013-08-01 02:19:00,83.7,50.7,29.53,NNW,338,3.8,3.8,32,0.00,CLR,,0.00,WeatherDisplay:10.37,2013-07-31 23:19:00,
2013-08-01 02:20:00,83.7,50.7,29.53,NW,322,3.0,6.0,32,0.00,CLR,,0.00,WeatherDisplay:10.37,2013-07-31 23:20:00,
2013-08-01 02:22:00,83.7,50.7,29.53,North,0,3.5,3.5,32,0.00,CLR,,0.00,WeatherDisplay:10.37,2013-07-31 23:22:00,
2013-08-01 02:24:00,83.7,50.7,29.53,North,0,5.8,5.8,32,0.00,CLR,,0.00,WeatherDisplay:10.37,2013-07-31 23:24:00,
2013-08-01 02:25:00,83.7,50.7,29.53,NNW,338,5.8,5.8,32,0.00,CLR,,0.00,WeatherDisplay:10.37,2013-07-31 23:25:00,
2013-08-01 02:27:00,83.5,50.5,29.53,North,0,4.6,4.6,32,0.00,CLR,,0.00,WeatherDisplay:10.37,2013-07-31 23:27:00,
2013-08-01 02:28:00,83.5,50.5,29.53,NNW,338,2.3,2.3,32,0.00,CLR,,0.00,WeatherDisplay:10.37,2013-07-31 23:28:00,
2013-08-01 02:30:00,83.5,50.5,29.53,NNW,338,2.3,0.0,32,0.00,CLR,,0.00,WeatherDisplay:10.37,2013-07-31 23:30:00,
2013-08-01 02:32:00,83.5,50.5,29.53,North,0,5.8,5.8,32,0.00,CLR,,0.00,WeatherDisplay:10.37,2013-07-31 23:32:00,
2013-08-01 02:33:00,83.5,50.5,29.53,NNW,338,6.9,6.9,32,0.00,CLR,,0.00,WeatherDisplay:10.37,2013-07-31 23:33:00,
2013-08-01 02:35:00,83.5,50.5,29.53,NNE,22,5.9,5.9,32,0.00,CLR,,0.00,WeatherDisplay:10.37,2013-07-31 23:35:00,
2013-08-01 02:37:00,83.5,50.5,29.53,NNW,338,4.6,4.6,32,0.00,CLR,,0.00,WeatherDisplay:10.37,2013-07-31 23:37:00,
2013-08-01 02:38:00,83.5,50.5,29.53,North,0,3.8,3.8,32,0.00,CLR,,0.00,WeatherDisplay:10.37,2013-07-31 23:38:00,
2013-08-01 02:39:00,83.5,50.5,29.53,NW,315,6.9,6.9,32,0.00,CLR,,0.00,WeatherDisplay:10.37,2013-07-31 23:39:00,
2013-08-01 02:40:00,83.5,50.5,29.53,WNW,292,6.9,6.9,32,0.00,CLR,,0.00,WeatherDisplay:10.37,2013-07-31 23:40:00,
2013-08-01 02:43:00,83.5,50.5,29.53,WNW,292,4.0,4.0,32,0.00,CLR,,0.00,WeatherDisplay:10.37,2013-07-31 23:43:00,
2013-08-01 02:44:00,83.5,50.5,29.53,NNW,338,4.6,4.6,32,0.00,CLR,,0.00,WeatherDisplay:10.37,2013-07-31 23:44:00,
2013-08-01 02:45:00,83.5,50.5,29.53,NNE,22,3.5,3.5,32,0.00,CLR,,0.00,WeatherDisplay:10.37,2013-07-31 23:45:00,
2013-08-01 02:46:00,83.5,50.5,29.53,NNW,338,9.2,9.2,32,0.00,CLR,,0.00,WeatherDisplay:10.37,2013-07-31 23:46:00,
2013-08-01 02:48:00,83.5,50.5,29.53,NNW,338,7.8,7.8,32,0.00,CLR,,0.00,WeatherDisplay:10.37,2013-07-31 23:48:00,
2013-08-01 02:49:00,83.5,50.5,29.53,NNW,338,8.1,8.1,32,0.00,CLR,,0.00,WeatherDisplay:10.37,2013-07-31 23:49:00,
2013-08-01 02:50:00,83.5,50.5,29.53,NNW,338,6.9,6.9,32,0.00,CLR,,0.00,WeatherDisplay:10.37,2013-07-31 23:50:00,
2013-08-01 02:51:00,83.5,50.5,29.53,NNW,338,6.9,6.9,32,0.00,CLR,,0.00,WeatherDisplay:10.37,2013-07-31 23:51:00,
2013-08-01 02:54:00,83.5,50.5,29.56,NW,315,6.9,6.9,32,0.00,CLR,,0.00,WeatherDisplay:10.37,2013-07-31 23:54:00,
2013-08-01 02:55:00,83.5,50.5,29.56,WNW,292,6.9,6.9,32,0.00,CLR,,0.00,WeatherDisplay:10.37,2013-07-31 23:55:00,
2013-08-01 02:57:00,83.5,50.5,29.56,NNW,338,7.1,7.1,32,0.00,CLR,,0.00,WeatherDisplay:10.37,2013-07-31 23:57:00,
2013-08-01 02:59:00,83.5,50.5,29.56,NNW,338,4.6,4.6,32,0.00,CLR,,0.00,WeatherDisplay:10.37,2013-07-31 23:59:00,
2013-08-01 03:00:00,83.5,50.5,29.56,NNW,338,6.9,6.9,32,0.00,CLR,,0.00,WeatherDisplay:10.37,2013-08-01 00:00:00,
2013-08-01 03:02:00,83.5,50.5,29.56,NNW,338,8.1,8.1,32,0.00,CLR,,0.00,WeatherDisplay:10.37,2013-08-01 00:02:00,
2013-08-01 03:04:00,83.5,50.5,29.56,WNW,292,5.8,5.8,32,0.00,CLR,,0.00,WeatherDisplay:10.37,2013-08-01 00:04:00,
2013-08-01 03:05:00,83.5,50.5,29.56,North,0,8.1,8.1,32,0.00,CLR,,0.00,WeatherDisplay:10.37,2013-08-01 00:05:00,
2013-08-01 03:07:00,83.5,50.5,29.56,North,0,9.2,9.2,32,0.00,CLR,,0.00,WeatherDisplay:10.37,2013-08-01 00:07:00,
2013-08-01 03:09:00,83.5,50.5,29.56,NNW,338,5.8,5.8,32,0.00,CLR,,0.00,WeatherDisplay:10.37,2013-08-01 00:09:00,
2013-08-01 03:10:00,83.5,50.5,29.56,NW,315,5.8,5.8,32,0.00,CLR,,0.00,WeatherDisplay:10.37,2013-08-01 00:10:00,
2013-08-01 03:13:00,83.5,50.5,29.56,NNE,22,7.1,7.1,32,0.00,CLR,,0.00,WeatherDisplay:10.37,2013-08-01 00:13:00,
2013-08-01 03:14:00,83.5,50.5,29.56,WNW,292,8.1,8.1,32,0.00,CLR,,0.00,WeatherDisplay:10.37,2013-08-01 00:14:00,
2013-08-01 03:15:00,83.5,50.5,29.56,North,0,8.1,8.1,32,0.00,CLR,,0.00,WeatherDisplay:10.37,2013-08-01 00:15:00,
2013-08-01 03:16:00,83.5,50.5,29.56,North,0,8.1,8.1,32,0.00,CLR,,0.00,WeatherDisplay:10.37,2013-08-01 00:16:00,
2013-08-01 03:18:00,83.5,50.5,29.56,NW,315,8.1,8.1,32,0.00,CLR,,0.00,WeatherDisplay:10.37,2013-08-01 00:18:00,
2013-08-01 03:20:00,83.5,50.5,29.56,NNW,338,9.8,9.8,32,0.00,CLR,,0.00,WeatherDisplay:10.37,2013-08-01 00:20:00,
2013-08-01 03:21:00,83.5,50.5,29.56,NNW,338,9.2,9.2,32,0.00,CLR,,0.00,WeatherDisplay:10.37,2013-08-01 00:21:00,
2013-08-01 03:23:00,83.7,50.7,29.56,NW,315,5.8,5.8,32,0.00,CLR,,0.00,WeatherDisplay:10.37,2013-08-01 00:23:00,
2013-08-01 03:25:00,83.7,50.7,29.56,NNW,334,2.0,10.0,32,0.00,CLR,,0.00,WeatherDisplay:10.37,2013-08-01 00:25:00,
2013-08-01 03:26:00,83.7,50.7,29.56,NW,315,5.8,5.8,32,0.00,CLR,,0.00,WeatherDisplay:10.37,2013-08-01 00:26:00,
2013-08-01 03:28:00,83.7,50.7,29.56,NNW,338,10.4,10.4,32,0.00,CLR,,0.00,WeatherDisplay:10.37,2013-08-01 00:28:00,
2013-08-01 03:30:00,83.8,50.8,29.56,NW,315,6.9,6.9,32,0.00,CLR,,0.00,WeatherDisplay:10.37,2013-08-01 00:30:00,
2013-08-01 03:31:00,83.8,50.8,29.56,NNE,22,8.1,8.1,32,0.00,CLR,,0.00,WeatherDisplay:10.37,2013-08-01 00:31:00,
2013-08-01 03:34:00,83.8,50.8,29.56,North,0,12.7,12.7,32,0.00,CLR,,0.00,WeatherDisplay:10.37,2013-08-01 00:34:00,
2013-08-01 03:35:00,83.8,50.8,29.56,NNW,338,5.8,5.8,32,0.00,CLR,,0.00,WeatherDisplay:10.37,2013-08-01 00:35:00,
2013-08-01 03:37:00,83.8,50.8,29.56,North,0,7.8,7.8,32,0.00,CLR,,0.00,WeatherDisplay:10.37,2013-08-01 00:37:00,
2013-08-01 03:38:00,83.8,50.8,29.56,NNW,338,10.4,10.4,32,0.00,CLR,,0.00,WeatherDisplay:10.37,2013-08-01 00:38:00,
2013-08-01 03:39:00,83.8,50.8,29.56,NNW,338,10.0,10.0,32,0.00,CLR,,0.00,WeatherDisplay:10.37,2013-08-01 00:39:00,
2013-08-01 03:40:00,83.7,50.7,29.56,NW,315,11.5,11.5,32,0.00,CLR,,0.00,WeatherDisplay:10.37,2013-08-01 00:40:00,
2013-08-01 03:42:00,83.7,50.7,29.56,NW,315,11.5,11.5,32,0.00,CLR,,0.00,WeatherDisplay:10.37,2013-08-01 00:42:00,
2013-08-01 03:43:00,83.7,50.7,29.56,NNW,338,10.4,10.4,32,0.00,CLR,,0.00,WeatherDisplay:10.37,2013-08-01 00:43:00,
2013-08-01 03:44:00,83.7,50.7,29.56,NW,315,10.4,10.4,32,0.00,CLR,,0.00,WeatherDisplay:10.37,2013-08-01 00:44:00,
2013-08-01 03:46:00,83.7,50.7,29.56,NNW,338,10.4,10.4,32,0.00,CLR,,0.00,WeatherDisplay:10.37,2013-08-01 00:46:00,
2013-08-01 03:48:00,83.7,50.7,29.56,NNE,22,10.4,10.4,32,0.00,CLR,,0.00,WeatherDisplay:10.37,2013-08-01 00:48:00,
2013-08-01 03:50:00,83.5,50.5,29.56,NNW,338,9.2,9.2,32,0.00,CLR,,0.00,WeatherDisplay:10.37,2013-08-01 00:50:00,
2013-08-01 03:52:00,83.5,50.5,29.56,NNW,338,9.2,9.2,32,0.00,CLR,,0.00,WeatherDisplay:10.37,2013-08-01 00:52:00,
2013-08-01 03:53:00,83.5,50.5,29.53,NNW,338,6.9,6.9,32,0.00,CLR,,0.00,WeatherDisplay:10.37,2013-08-01 00:53:00,
2013-08-01 03:55:00,83.3,50.4,29.53,WNW,292,8.1,8.1,32,0.00,CLR,,0.00,WeatherDisplay:10.37,2013-08-01 00:55:00,
2013-08-01 03:57:00,83.3,50.4,29.53,NNW,338,6.7,6.7,32,0.00,CLR,,0.00,WeatherDisplay:10.37,2013-08-01 00:57:00,
2013-08-01 03:58:00,83.3,50.4,29.53,NW,315,6.9,6.9,32,0.00,CLR,,0.00,WeatherDisplay:10.37,2013-08-01 00:58:00,
2013-08-01 04:00:00,83.3,51.2,29.53,NW,315,4.6,4.6,33,0.00,CLR,,0.00,WeatherDisplay:10.37,2013-08-01 01:00:00,
2013-08-01 04:02:00,83.1,51.0,29.53,NNW,338,5.8,5.8,33,0.00,CLR,,0.00,WeatherDisplay:10.37,2013-08-01 01:02:00,
2013-08-01 04:03:00,83.1,51.0,29.53,North,0,5.8,5.8,33,0.00,CLR,,0.00,WeatherDisplay:10.37,2013-08-01 01:03:00,
2013-08-01 04:05:00,83.1,51.0,29.53,NNW,338,5.8,5.8,33,0.00,CLR,,0.00,WeatherDisplay:10.37,2013-08-01 01:05:00,
2013-08-01 04:07:00,83.1,51.0,29.53,NNW,338,3.1,3.1,33,0.00,CLR,,0.00,WeatherDisplay:10.37,2013-08-01 01:07:00,
2013-08-01 04:09:00,83.1,51.0,29.56,NNW,338,4.6,4.6,33,0.00,CLR,,0.00,WeatherDisplay:10.37,2013-08-01 01:09:00,
2013-08-01 04:10:00,82.9,50.9,29.56,NNW,338,5.8,5.8,33,0.00,CLR,,0.00,WeatherDisplay:10.37,2013-08-01 01:10:00,
2013-08-01 04:12:00,82.9,50.9,29.56,NNW,338,3.5,3.5,33,0.00,CLR,,0.00,WeatherDisplay:10.37,2013-08-01 01:12:00,
2013-08-01 04:14:00,82.9,50.9,29.56,NNW,338,4.7,4.7,33,0.00,CLR,,0.00,WeatherDisplay:10.37,2013-08-01 01:14:00,
2013-08-01 04:15:00,82.9,51.7,29.56,NNE,22,8.5,8.5,34,0.00,CLR,,0.00,WeatherDisplay:10.37,2013-08-01 01:15:00,
2013-08-01 04:18:00,82.9,51.7,29.56,NNW,338,3.5,4.3,34,0.00,CLR,,0.00,WeatherDisplay:10.37,2013-08-01 01:18:00,
2013-08-01 04:19:00,83.1,51.8,29.56,NNW,338,5.8,5.8,34,0.00,CLR,,0.00,WeatherDisplay:10.37,2013-08-01 01:19:00,
2013-08-01 04:20:00,82.9,51.7,29.56,NW,315,4.6,4.6,34,0.00,CLR,,0.00,WeatherDisplay:10.37,2013-08-01 01:20:00,
2013-08-01 04:23:00,82.9,51.7,29.53,NNW,338,3.5,3.5,34,0.00,CLR,,0.00,WeatherDisplay:10.37,2013-08-01 01:23:00,
2013-08-01 04:24:00,82.9,51.7,29.53,NNW,338,3.1,0.0,34,0.00,CLR,,0.00,WeatherDisplay:10.37,2013-08-01 01:24:00,
2013-08-01 04:25:00,82.8,51.5,29.53,NNE,22,3.5,0.0,34,0.00,CLR,,0.00,WeatherDisplay:10.37,2013-08-01 01:25:00,
2013-08-01 04:26:00,82.8,51.5,29.53,NNW,338,4.9,4.9,34,0.00,CLR,,0.00,WeatherDisplay:10.37,2013-08-01 01:26:00,
2013-08-01 04:28:00,82.8,51.5,29.53,NNW,338,3.6,3.6,34,0.00,CLR,,0.00,WeatherDisplay:10.37,2013-08-01 01:28:00,
2013-08-01 04:29:00,82.8,51.5,29.53,NNW,338,3.5,3.5,34,0.00,CLR,,0.00,WeatherDisplay:10.37,2013-08-01 01:29:00,
2013-08-01 04:30:00,82.8,51.5,29.53,NNW,338,2.3,2.3,34,0.00,CLR,,0.00,WeatherDisplay:10.37,2013-08-01 01:30:00,
2013-08-01 04:31:00,82.8,51.5,29.53,NNW,338,3.5,3.5,34,0.00,CLR,,0.00,WeatherDisplay:10.37,2013-08-01 01:31:00,
2013-08-01 04:33:00,82.8,51.5,29.53,NNW,338,3.5,3.5,34,0.00,CLR,,0.00,WeatherDisplay:10.37,2013-08-01 01:33:00,
2013-08-01 04:34:00,82.8,51.5,29.53,North,0,2.3,2.3,34,0.00,CLR,,0.00,WeatherDisplay:10.37,2013-08-01 01:34:00,
2013-08-01 04:35:00,82.8,51.5,29.53,NNW,338,2.9,2.9,34,0.00,CLR,,0.00,WeatherDisplay:10.37,2013-08-01 01:35:00,
2013-08-01 04:36:00,82.8,51.5,29.53,NNW,338,4.6,4.6,34,0.00,CLR,,0.00,WeatherDisplay:10.37,2013-08-01 01:36:00,
2013-08-01 04:38:00,82.8,51.5,29.53,NNW,338,4.6,4.6,34,0.00,CLR,,0.00,WeatherDisplay:10.37,2013-08-01 01:38:00,
2013-08-01 04:39:00,82.8,51.5,29.53,WNW,292,3.5,3.5,34,0.00,CLR,,0.00,WeatherDisplay:10.37,2013-08-01 01:39:00,
2013-08-01 04:40:00,82.8,51.5,29.53,NNW,338,3.5,3.5,34,0.00,CLR,,0.00,WeatherDisplay:10.37,2013-08-01 01:40:00,
2013-08-01 04:41:00,82.8,51.5,29.53,North,0,5.8,5.8,34,0.00,CLR,,0.00,WeatherDisplay:10.37,2013-08-01 01:41:00,
2013-08-01 04:43:00,82.8,51.5,29.53,WNW,292,3.5,3.5,34,0.00,CLR,,0.00,WeatherDisplay:10.37,2013-08-01 01:43:00,
2013-08-01 04:44:00,82.8,51.5,29.53,WNW,292,3.5,3.5,34,0.00,CLR,,0.00,WeatherDisplay:10.37,2013-08-01 01:44:00,
2013-08-01 04:45:00,82.8,52.3,29.53,NNW,338,2.0,6.0,35,0.00,CLR,,0.00,WeatherDisplay:10.37,2013-08-01 01:45:00,
2013-08-01 04:46:00,82.8,52.3,29.53,NNW,338,6.9,6.9,35,0.00,CLR,,0.00,WeatherDisplay:10.37,2013-08-01 01:46:00,
2013-08-01 04:48:00,82.8,52.3,29.53,NNE,22,6.9,6.9,35,0.00,CLR,,0.00,WeatherDisplay:10.37,2013-08-01 01:48:00,
2013-08-01 04:49:00,82.8,51.5,29.53,NNE,22,4.6,4.6,34,0.00,CLR,,0.00,WeatherDisplay:10.37,2013-08-01 01:49:00,
2013-08-01 04:50:00,82.8,52.3,29.53,NW,315,4.9,4.9,35,0.00,CLR,,0.00,WeatherDisplay:10.37,2013-08-01 01:50:00,
2013-08-01 04:51:00,82.8,52.3,29.53,NNW,338,4.6,4.6,35,0.00,CLR,,0.00,WeatherDisplay:10.37,2013-08-01 01:51:00,
2013-08-01 04:53:00,82.8,52.3,29.53,NW,315,4.7,4.7,35,0.00,CLR,,0.00,WeatherDisplay:10.37,2013-08-01 01:53:00,
2013-08-01 04:54:00,82.8,52.3,29.53,NNE,22,4.6,4.6,35,0.00,CLR,,0.00,WeatherDisplay:10.37,2013-08-01 01:54:00,
2013-08-01 04:55:00,82.6,52.2,29.53,NW,315,5.8,5.8,35,0.00,CLR,,0.00,WeatherDisplay:10.37,2013-08-01 01:55:00,
2013-08-01 04:56:00,82.6,52.2,29.53,NNW,338,5.8,5.8,35,0.00,CLR,,0.00,WeatherDisplay:10.37,2013-08-01 01:56:00,
2013-08-01 04:59:00,82.4,52.8,29.53,NW,315,8.1,8.1,36,0.00,CLR,,0.00,WeatherDisplay:10.37,2013-08-01 01:59:00,
2013-08-01 05:01:00,82.2,54.1,29.53,NW,315,8.1,8.1,38,0.00,CLR,,0.00,WeatherDisplay:10.37,2013-08-01 02:01:00,
2013-08-01 05:02:00,82.2,54.1,29.53,North,0,8.1,8.1,38,0.00,CLR,,0.00,WeatherDisplay:10.37,2013-08-01 02:02:00,
2013-08-01 05:04:00,82.2,54.1,29.53,North,0,8.1,8.1,38,0.00,CLR,,0.00,WeatherDisplay:10.37,2013-08-01 02:04:00,
2013-08-01 05:07:00,82.0,54.6,29.53,NNW,338,9.2,9.2,39,0.00,CLR,,0.00,WeatherDisplay:10.37,2013-08-01 02:07:00,
2013-08-01 05:09:00,82.0,54.6,29.56,NNW,338,5.8,5.8,39,0.00,CLR,,0.00,WeatherDisplay:10.37,2013-08-01 02:09:00,
2013-08-01 05:10:00,82.0,54.6,29.56,NNW,343,5.0,9.0,39,0.00,CLR,,0.00,WeatherDisplay:10.37,2013-08-01 02:10:00,
2013-08-01 05:12:00,82.0,55.3,29.56,NNW,338,8.1,8.1,40,0.00,CLR,,0.00,WeatherDisplay:10.37,2013-08-01 02:12:00,
2013-08-01 05:14:00,81.9,55.2,29.56,NNW,338,9.2,9.2,40,0.00,CLR,,0.00,WeatherDisplay:10.37,2013-08-01 02:14:00,
2013-08-01 05:15:00,81.9,55.2,29.56,NNW,338,9.2,9.2,40,0.00,CLR,,0.00,WeatherDisplay:10.37,2013-08-01 02:15:00,
2013-08-01 05:17:00,81.9,55.2,29.56,NNW,338,8.1,8.1,40,0.00,CLR,,0.00,WeatherDisplay:10.37,2013-08-01 02:17:00,
2013-08-01 05:18:00,81.9,55.2,29.56,NNW,338,8.1,8.1,40,0.00,CLR,,0.00,WeatherDisplay:10.37,2013-08-01 02:18:00,
2013-08-01 05:19:00,81.9,55.2,29.56,North,0,8.1,8.1,40,0.00,CLR,,0.00,WeatherDisplay:10.37,2013-08-01 02:19:00,
2013-08-01 05:20:00,81.9,55.2,29.56,North,0,8.1,8.1,40,0.00,CLR,,0.00,WeatherDisplay:10.37,2013-08-01 02:20:00,
2013-08-01 05:22:00,81.7,55.0,29.56,NNE,22,4.6,4.6,40,0.00,CLR,,0.00,WeatherDisplay:10.37,2013-08-01 02:22:00,
2013-08-01 05:23:00,81.7,55.0,29.56,NW,315,3.5,3.5,40,0.00,CLR,,0.00,WeatherDisplay:10.37,2013-08-01 02:23:00,
2013-08-01 05:24:00,81.7,55.0,29.56,NNE,22,3.8,3.8,40,0.00,CLR,,0.00,WeatherDisplay:10.37,2013-08-01 02:24:00,
2013-08-01 05:25:00,81.7,55.0,29.56,NNW,338,4.6,4.6,40,0.00,CLR,,0.00,WeatherDisplay:10.37,2013-08-01 02:25:00,
2013-08-01 05:27:00,81.7,55.0,29.56,NNW,338,5.8,5.8,40,0.00,CLR,,0.00,WeatherDisplay:10.37,2013-08-01 02:27:00,
2013-08-01 05:28:00,81.5,54.8,29.56,NW,315,4.6,4.6,40,0.00,CLR,,0.00,WeatherDisplay:10.37,2013-08-01 02:28:00,
2013-08-01 05:29:00,81.5,54.8,29.56,NNW,338,4.6,4.6,40,0.00,CLR,,0.00,WeatherDisplay:10.37,2013-08-01 02:29:00,
2013-08-01 05:30:00,81.5,54.8,29.56,WNW,292,3.5,3.5,40,0.00,CLR,,0.00,WeatherDisplay:10.37,2013-08-01 02:30:00,
2013-08-01 05:32:00,81.5,54.8,29.56,North,0,8.1,8.1,40,0.00,CLR,,0.00,WeatherDisplay:10.37,2013-08-01 02:32:00,
2013-08-01 05:33:00,81.5,54.8,29.56,NE,45,9.2,9.2,40,0.00,CLR,,0.00,WeatherDisplay:10.37,2013-08-01 02:33:00,
2013-08-01 05:34:00,81.5,54.8,29.56,NNE,22,9.2,9.2,40,0.00,CLR,,0.00,WeatherDisplay:10.37,2013-08-01 02:34:00,
2013-08-01 05:35:00,81.5,54.8,29.56,NNW,338,8.1,8.1,40,0.00,CLR,,0.00,WeatherDisplay:10.37,2013-08-01 02:35:00,
2013-08-01 05:38:00,81.5,54.8,29.56,North,0,6.9,6.9,40,0.00,CLR,,0.00,WeatherDisplay:10.37,2013-08-01 02:38:00,
2013-08-01 05:39:00,81.5,54.8,29.56,NE,45,6.9,6.9,40,0.00,CLR,,0.00,WeatherDisplay:10.37,2013-08-01 02:39:00,
2013-08-01 05:40:00,81.5,54.8,29.56,NNW,338,6.9,6.9,40,0.00,CLR,,0.00,WeatherDisplay:10.37,2013-08-01 02:40:00,
2013-08-01 05:41:00,81.5,54.8,29.56,NNW,338,6.9,6.9,40,0.00,CLR,,0.00,WeatherDisplay:10.37,2013-08-01 02:41:00,
2013-08-01 05:43:00,81.5,54.8,29.56,NNE,22,5.8,5.8,40,0.00,CLR,,0.00,WeatherDisplay:10.37,2013-08-01 02:43:00,
2013-08-01 05:44:00,81.5,54.8,29.56,North,0,8.5,8.5,40,0.00,CLR,,0.00,WeatherDisplay:10.37,2013-08-01 02:44:00,
2013-08-01 05:45:00,81.5,54.8,29.56,NNE,22,8.1,8.1,40,0.00,CLR,,0.00,WeatherDisplay:10.37,2013-08-01 02:45:00,
2013-08-01 05:46:00,81.5,54.8,29.56,NNE,22,9.2,9.2,40,0.00,CLR,,0.00,WeatherDisplay:10.37,2013-08-01 02:46:00,
2013-08-01 05:48:00,81.3,54.7,29.56,NNW,338,13.0,13.0,40,0.00,CLR,,0.00,WeatherDisplay:10.37,2013-08-01 02:48:00,
2013-08-01 05:49:00,81.3,54.7,29.56,ENE,68,12.7,12.7,40,0.00,CLR,,0.00,WeatherDisplay:10.37,2013-08-01 02:49:00,
2013-08-01 05:50:00,81.3,54.7,29.56,ENE,68,12.7,12.7,40,0.00,CLR,,0.00,WeatherDisplay:10.37,2013-08-01 02:50:00,
2013-08-01 05:51:00,81.3,54.7,29.56,NNW,338,8.1,8.1,40,0.00,CLR,,0.00,WeatherDisplay:10.37,2013-08-01 02:51:00,
2013-08-01 05:54:00,81.3,54.7,29.56,NNE,22,8.5,8.5,40,0.00,CLR,,0.00,WeatherDisplay:10.37,2013-08-01 02:54:00,
2013-08-01 05:55:00,81.3,54.7,29.56,NE,45,12.7,12.7,40,0.00,CLR,,0.00,WeatherDisplay:10.37,2013-08-01 02:55:00,
2013-08-01 05:56:00,81.3,54.7,29.56,North,0,15.0,15.0,40,0.00,CLR,,0.00,WeatherDisplay:10.37,2013-08-01 02:56:00,
2013-08-01 05:59:00,81.3,54.7,29.56,NNW,338,12.7,12.7,40,0.00,CLR,,0.00,WeatherDisplay:10.37,2013-08-01 02:59:00,
2013-08-01 06:00:00,81.3,54.7,29.56,NNE,22,12.5,12.5,40,0.00,CLR,,0.00,WeatherDisplay:10.37,2013-08-01 03:00:00,
2013-08-01 06:02:00,81.3,54.7,29.56,NE,45,19.6,19.6,40,0.00,CLR,,0.00,WeatherDisplay:10.37,2013-08-01 03:02:00,
2013-08-01 06:04:00,81.3,54.7,29.56,North,0,10.4,10.4,40,0.00,CLR,,0.00,WeatherDisplay:10.37,2013-08-01 03:04:00,
2013-08-01 06:05:00,81.3,54.7,29.56,NNE,22,10.7,10.7,40,0.00,CLR,,0.00,WeatherDisplay:10.37,2013-08-01 03:05:00,
2013-08-01 06:07:00,81.3,54.7,29.56,North,0,6.0,6.0,40,0.00,CLR,,0.00,WeatherDisplay:10.37,2013-08-01 03:07:00,
2013-08-01 06:10:00,81.3,54.7,29.56,NE,45,8.1,8.1,40,0.00,CLR,,0.00,WeatherDisplay:10.37,2013-08-01 03:10:00,
2013-08-01 06:13:00,81.1,54.5,29.56,North,0,10.4,10.4,40,0.00,CLR,,0.00,WeatherDisplay:10.37,2013-08-01 03:13:00,
2013-08-01 06:15:00,81.1,54.5,29.56,NNE,22,10.4,10.4,40,0.00,CLR,,0.00,WeatherDisplay:10.37,2013-08-01 03:15:00,
2013-08-01 06:16:00,81.1,54.5,29.56,NNW,338,10.4,10.4,40,0.00,CLR,,0.00,WeatherDisplay:10.37,2013-08-01 03:16:00,
2013-08-01 06:18:00,81.1,54.5,29.56,NNW,338,11.5,11.5,40,0.00,CLR,,0.00,WeatherDisplay:10.37,2013-08-01 03:18:00,
2013-08-01 06:20:00,81.3,54.7,29.56,NNE,22,9.2,9.2,40,0.00,CLR,,0.00,WeatherDisplay:10.37,2013-08-01 03:20:00,
2013-08-01 06:21:00,81.3,54.7,29.56,NNE,22,9.2,9.2,40,0.00,CLR,,0.00,WeatherDisplay:10.37,2013-08-01 03:21:00,
2013-08-01 06:23:00,81.1,54.5,29.59,NNE,22,9.8,9.8,40,0.00,CLR,,0.00,WeatherDisplay:10.37,2013-08-01 03:23:00,
2013-08-01 06:25:00,81.1,54.5,29.59,NNE,22,9.2,9.2,40,0.00,CLR,,0.00,WeatherDisplay:10.37,2013-08-01 03:25:00,
2013-08-01 06:26:00,81.1,54.5,29.59,NNE,22,9.2,9.2,40,0.00,CLR,,0.00,WeatherDisplay:10.37,2013-08-01 03:26:00,
2013-08-01 06:28:00,81.1,54.5,29.59,North,0,8.1,8.1,40,0.00,CLR,,0.00,WeatherDisplay:10.37,2013-08-01 03:28:00,
2013-08-01 06:31:00,81.0,55.0,29.59,ENE,68,6.9,6.9,41,0.00,CLR,,0.00,WeatherDisplay:10.37,2013-08-01 03:31:00,
2013-08-01 06:32:00,81.0,55.0,29.59,NNE,22,5.8,5.8,41,0.00,CLR,,0.00,WeatherDisplay:10.37,2013-08-01 03:32:00,
2013-08-01 06:34:00,81.0,55.0,29.59,NNW,338,5.8,5.8,41,0.00,CLR,,0.00,WeatherDisplay:10.37,2013-08-01 03:34:00,
2013-08-01 06:36:00,81.0,55.0,29.59,NNE,22,5.8,5.8,41,0.00,CLR,,0.00,WeatherDisplay:10.37,2013-08-01 03:36:00,
2013-08-01 06:37:00,80.8,54.9,29.59,NNE,22,4.6,4.6,41,0.00,CLR,,0.00,WeatherDisplay:10.37,2013-08-01 03:37:00,
2013-08-01 06:38:00,80.8,54.9,29.59,NW,315,7.6,7.6,41,0.00,CLR,,0.00,WeatherDisplay:10.37,2013-08-01 03:38:00,
2013-08-01 06:39:00,80.8,54.9,29.59,NE,45,10.2,10.2,41,0.00,CLR,,0.00,WeatherDisplay:10.37,2013-08-01 03:39:00,
2013-08-01 06:41:00,81.0,55.0,29.59,NNW,338,8.1,8.1,41,0.00,CLR,,0.00,WeatherDisplay:10.37,2013-08-01 03:41:00,
2013-08-01 06:42:00,81.0,55.0,29.59,North,0,5.8,5.8,41,0.00,CLR,,0.00,WeatherDisplay:10.37,2013-08-01 03:42:00,
2013-08-01 06:43:00,81.0,55.0,29.59,NNW,338,5.8,5.8,41,0.00,CLR,,0.00,WeatherDisplay:10.37,2013-08-01 03:43:00,
2013-08-01 06:44:00,80.8,54.9,29.59,NNW,338,6.9,6.9,41,0.00,CLR,,0.00,WeatherDisplay:10.37,2013-08-01 03:44:00,
2013-08-01 06:47:00,80.8,54.9,29.59,NNW,338,4.9,4.9,41,0.00,CLR,,0.00,WeatherDisplay:10.37,2013-08-01 03:47:00,
2013-08-01 06:48:00,80.8,54.9,29.59,NNW,338,6.9,6.9,41,0.00,CLR,,0.00,WeatherDisplay:10.37,2013-08-01 03:48:00,
2013-08-01 06:49:00,80.8,54.9,29.59,NNE,22,8.1,8.1,41,0.00,CLR,,0.00,WeatherDisplay:10.37,2013-08-01 03:49:00,
2013-08-01 06:52:00,80.8,54.9,29.59,NNW,338,10.4,10.4,41,0.00,CLR,,0.00,WeatherDisplay:10.37,2013-08-01 03:52:00,
2013-08-01 06:53:00,80.8,54.9,29.59,NE,45,10.4,10.4,41,0.00,CLR,,0.00,WeatherDisplay:10.37,2013-08-01 03:53:00,
2013-08-01 06:54:00,80.8,54.9,29.59,North,0,6.9,6.9,41,0.00,CLR,,0.00,WeatherDisplay:10.37,2013-08-01 03:54:00,
2013-08-01 06:57:00,80.8,54.9,29.59,NNE,22,8.1,8.1,41,0.00,CLR,,0.00,WeatherDisplay:10.37,2013-08-01 03:57:00,
2013-08-01 06:58:00,80.8,54.9,29.59,NNW,338,11.5,11.5,41,0.00,CLR,,0.00,WeatherDisplay:10.37,2013-08-01 03:58:00,
2013-08-01 06:59:00,80.8,54.9,29.59,NNW,338,6.9,6.9,41,0.00,CLR,,0.00,WeatherDisplay:10.37,2013-08-01 03:59:00,
2013-08-01 07:01:00,80.8,54.9,29.59,North,0,4.6,4.6,41,0.00,CLR,,0.00,WeatherDisplay:10.37,2013-08-01 04:01:00,
2013-08-01 07:02:00,81.0,55.0,29.59,North,0,12.7,12.7,41,0.00,CLR,,0.00,WeatherDisplay:10.37,2013-08-01 04:02:00,
2013-08-01 07:06:00,81.1,55.2,29.59,NNW,338,11.5,11.5,41,0.00,CLR,,0.00,WeatherDisplay:10.37,2013-08-01 04:06:00,
2013-08-01 07:07:00,81.1,55.2,29.59,NNW,338,8.1,8.1,41,0.00,CLR,,0.00,WeatherDisplay:10.37,2013-08-01 04:07:00,
2013-08-01 07:12:00,81.1,55.2,29.59,NNW,338,10.7,10.7,41,0.00,CLR,,0.00,WeatherDisplay:10.37,2013-08-01 04:12:00,
2013-08-01 07:13:00,81.1,55.2,29.59,NNW,338,10.4,10.4,41,0.00,CLR,,0.00,WeatherDisplay:10.37,2013-08-01 04:13:00,
2013-08-01 07:17:00,81.3,55.4,29.59,NNW,338,8.1,8.1,41,0.00,CLR,,0.00,WeatherDisplay:10.37,2013-08-01 04:17:00,
2013-08-01 07:18:00,81.3,55.4,29.59,NNW,338,8.1,8.1,41,0.00,CLR,,0.00,WeatherDisplay:10.37,2013-08-01 04:18:00,
2013-08-01 07:22:00,81.9,55.9,29.59,NNW,338,5.8,5.8,41,0.00,CLR,,0.00,WeatherDisplay:10.37,2013-08-01 04:22:00,
2013-08-01 07:23:00,82.0,56.0,29.59,NNW,338,5.8,5.8,41,0.00,CLR,,0.00,WeatherDisplay:10.37,2013-08-01 04:23:00,
2013-08-01 07:27:00,82.2,55.5,29.59,NNE,22,5.9,5.9,40,0.00,CLR,,0.00,WeatherDisplay:10.37,2013-08-01 04:27:00,
2013-08-01 07:28:00,82.2,55.5,29.59,ENE,68,5.8,5.8,40,0.00,CLR,,0.00,WeatherDisplay:10.37,2013-08-01 04:28:00,
2013-08-01 07:32:00,82.6,55.8,29.59,NNE,22,9.2,9.2,40,0.00,CLR,,0.00,WeatherDisplay:10.37,2013-08-01 04:32:00,
2013-08-01 07:33:00,82.8,56.0,29.59,NW,315,9.2,9.2,40,0.00,CLR,,0.00,WeatherDisplay:10.37,2013-08-01 04:33:00,
2013-08-01 07:34:00,82.8,56.0,29.59,NNW,338,4.9,4.9,40,0.00,CLR,,0.00,WeatherDisplay:10.37,2013-08-01 04:34:00,
2013-08-01 07:38:00,82.9,56.1,29.62,NNW,338,5.9,5.9,40,0.00,CLR,,0.00,WeatherDisplay:10.37,2013-08-01 04:38:00,
2013-08-01 07:39:00,82.9,56.1,29.62,NNE,22,5.8,5.8,40,0.00,CLR,,0.00,WeatherDisplay:10.37,2013-08-01 04:39:00,
2013-08-01 07:43:00,83.1,56.3,29.62,NNW,338,5.8,5.8,40,0.00,CLR,,0.00,WeatherDisplay:10.37,2013-08-01 04:43:00,
2013-08-01 07:44:00,83.1,56.3,29.62,NNW,338,10.4,10.4,40,0.00,CLR,,0.00,WeatherDisplay:10.37,2013-08-01 04:44:00,
2013-08-01 07:48:00,83.5,56.6,29.62,North,0,4.3,4.3,40,0.00,CLR,,0.00,WeatherDisplay:10.37,2013-08-01 04:48:00,
2013-08-01 07:49:00,83.5,56.6,29.62,NNW,338,6.9,6.9,40,0.00,CLR,,0.00,WeatherDisplay:10.37,2013-08-01 04:49:00,
2013-08-01 07:53:00,83.3,55.8,29.62,NNW,338,10.4,10.4,39,0.00,CLR,,0.00,WeatherDisplay:10.37,2013-08-01 04:53:00,
2013-08-01 07:54:00,83.3,55.8,29.62,NNE,22,10.4,10.4,39,0.00,CLR,,0.00,WeatherDisplay:10.37,2013-08-01 04:54:00,
2013-08-01 07:58:00,83.5,55.9,29.62,NNW,338,10.4,10.4,39,0.00,CLR,,0.00,WeatherDisplay:10.37,2013-08-01 04:58:00,
2013-08-01 07:59:00,83.5,55.9,29.62,NNW,338,10.4,10.4,39,0.00,CLR,,0.00,WeatherDisplay:10.37,2013-08-01 04:59:00,
2013-08-01 08:00:00,83.4,55.9,29.62,North,9,8.0,12.0,39,0.00,CLR,,0.00,WeatherDisplay:10.37,2013-08-01 05:00:00,
2013-08-01 08:04:00,83.7,56.1,29.62,NNE,22,7.4,7.4,39,0.00,CLR,,0.00,WeatherDisplay:10.37,2013-08-01 05:04:00,
2013-08-01 08:05:00,83.7,56.1,29.62,NNE,22,7.4,7.4,39,0.00,CLR,,0.00,WeatherDisplay:10.37,2013-08-01 05:05:00,
2013-08-01 08:10:00,83.8,56.2,29.62,NE,45,8.1,8.5,39,0.00,CLR,,0.00,WeatherDisplay:10.37,2013-08-01 05:10:00,
2013-08-01 08:15:00,84.2,55.8,29.62,NNW,338,5.8,5.8,38,0.00,CLR,,0.00,WeatherDisplay:10.37,2013-08-01 05:15:00,
2013-08-01 08:16:00,84.4,56.0,29.62,NNE,22,7.4,7.4,38,0.00,CLR,,0.00,WeatherDisplay:10.37,2013-08-01 05:16:00,
2013-08-01 08:20:00,84.4,54.5,29.62,NNW,338,11.5,11.5,36,0.00,CLR,,0.00,WeatherDisplay:10.37,2013-08-01 05:20:00,
2013-08-01 08:21:00,84.4,54.5,29.62,NNW,338,6.9,6.9,36,0.00,CLR,,0.00,WeatherDisplay:10.37,2013-08-01 05:21:00,
2013-08-01 08:25:00,84.9,55.0,29.62,NNW,338,5.8,5.8,36,0.00,CLR,,0.00,WeatherDisplay:10.37,2013-08-01 05:25:00,
2013-08-01 08:26:00,85.1,55.1,29.62,NNW,338,5.8,5.8,36,0.00,CLR,,0.00,WeatherDisplay:10.37,2013-08-01 05:26:00,
2013-08-01 08:27:00,85.1,55.1,29.62,NW,315,8.1,8.1,36,0.00,CLR,,0.00,WeatherDisplay:10.37,2013-08-01 05:27:00,
2013-08-01 08:31:00,85.3,54.5,29.62,NNW,338,6.9,7.6,35,0.00,CLR,,0.00,WeatherDisplay:10.37,2013-08-01 05:31:00,
2013-08-01 08:32:00,85.3,54.5,29.62,NNW,338,8.1,8.1,35,0.00,CLR,,0.00,WeatherDisplay:10.37,2013-08-01 05:32:00,
2013-08-01 08:36:00,85.3,54.5,29.62,WNW,292,10.4,10.4,35,0.00,CLR,,0.00,WeatherDisplay:10.37,2013-08-01 05:36:00,
2013-08-01 08:37:00,85.8,55.0,29.62,NE,45,5.8,5.8,35,0.00,CLR,,0.00,WeatherDisplay:10.37,2013-08-01 05:37:00,
2013-08-01 08:38:00,85.8,55.0,29.62,NE,45,5.8,5.8,35,0.00,CLR,,0.00,WeatherDisplay:10.37,2013-08-01 05:38:00,
2013-08-01 08:41:00,86.4,55.5,29.62,NNW,338,4.6,4.6,35,0.00,CLR,,0.00,WeatherDisplay:10.37,2013-08-01 05:41:00,
2013-08-01 08:42:00,86.4,55.5,29.62,North,0,7.6,7.6,35,0.00,CLR,,0.00,WeatherDisplay:10.37,2013-08-01 05:42:00,
2013-08-01 08:43:00,86.2,55.3,29.62,WNW,292,8.1,8.1,35,0.00,CLR,,0.00,WeatherDisplay:10.37,2013-08-01 05:43:00,
2013-08-01 08:46:00,85.6,56.4,29.62,North,0,8.5,8.5,37,0.00,CLR,,0.00,WeatherDisplay:10.37,2013-08-01 05:46:00,
2013-08-01 08:48:00,85.6,56.4,29.62,NNW,338,5.9,6.0,37,0.00,CLR,,0.00,WeatherDisplay:10.37,2013-08-01 05:48:00,
2013-08-01 08:52:00,85.3,56.8,29.62,North,0,10.4,10.4,38,0.00,CLR,,0.00,WeatherDisplay:10.37,2013-08-01 05:52:00,
2013-08-01 08:53:00,85.5,57.7,29.62,NNW,338,8.1,8.1,39,0.00,CLR,,0.00,WeatherDisplay:10.37,2013-08-01 05:53:00,
2013-08-01 08:54:00,85.5,57.7,29.62,North,0,8.1,8.1,39,0.00,CLR,,0.00,WeatherDisplay:10.37,2013-08-01 05:54:00,
2013-08-01 08:58:00,86.0,57.4,29.62,NNW,338,9.2,9.2,38,0.00,CLR,,0.00,WeatherDisplay:10.37,2013-08-01 05:58:00,
2013-08-01 08:59:00,86.4,57.0,29.62,NW,315,6.9,6.9,37,0.00,CLR,,0.00,WeatherDisplay:10.37,2013-08-01 05:59:00,
2013-08-01 09:03:00,86.5,56.4,29.62,NNW,338,10.4,10.4,36,0.00,CLR,,0.00,WeatherDisplay:10.37,2013-08-01 06:03:00,
2013-08-01 09:04:00,86.2,56.1,29.62,NNE,22,11.5,11.5,36,0.00,CLR,,0.00,WeatherDisplay:10.37,2013-08-01 06:04:00,
2013-08-01 09:08:00,86.7,56.6,29.65,NE,45,6.9,6.9,36,0.00,CLR,,0.00,WeatherDisplay:10.37,2013-08-01 06:08:00,
2013-08-01 09:09:00,87.1,56.1,29.65,NNW,338,6.9,6.9,35,0.00,CLR,,0.00,WeatherDisplay:10.37,2013-08-01 06:09:00,
2013-08-01 09:13:00,88.2,56.3,29.65,NNW,338,4.6,4.6,34,0.00,CLR,,0.00,WeatherDisplay:10.37,2013-08-01 06:13:00,
2013-08-01 09:14:00,88.2,56.3,29.65,NNE,22,5.8,5.8,34,0.00,CLR,,0.00,WeatherDisplay:10.37,2013-08-01 06:14:00,
2013-08-01 09:18:00,88.0,55.3,29.65,NNW,338,8.1,8.1,33,0.00,CLR,,0.00,WeatherDisplay:10.37,2013-08-01 06:18:00,
2013-08-01 09:19:00,87.8,55.1,29.65,NNW,338,8.1,8.1,33,0.00,CLR,,0.00,WeatherDisplay:10.37,2013-08-01 06:19:00,
2013-08-01 09:20:00,87.8,55.1,29.65,North,1,6.0,8.0,33,0.00,CLR,,0.00,WeatherDisplay:10.37,2013-08-01 06:20:00,
2013-08-01 09:23:00,88.2,55.4,29.62,NE,45,5.8,5.8,33,0.00,CLR,,0.00,WeatherDisplay:10.37,2013-08-01 06:23:00,
2013-08-01 09:24:00,88.2,55.4,29.62,NNW,338,5.8,5.8,33,0.00,CLR,,0.00,WeatherDisplay:10.37,2013-08-01 06:24:00,
2013-08-01 09:25:00,88.2,55.4,29.62,NNW,338,10.4,10.4,33,0.00,CLR,,0.00,WeatherDisplay:10.37,2013-08-01 06:25:00,
2013-08-01 09:29:00,88.3,54.7,29.62,North,0,8.1,8.1,32,0.00,CLR,,0.00,WeatherDisplay:10.37,2013-08-01 06:29:00,
2013-08-01 09:31:00,88.5,54.9,29.62,WSW,248,5.8,5.8,32,0.00,CLR,,0.00,WeatherDisplay:10.37,2013-08-01 06:31:00,
2013-08-01 09:34:00,89.1,55.4,29.62,NNE,22,5.8,5.8,32,0.00,CLR,,0.00,WeatherDisplay:10.37,2013-08-01 06:34:00,
2013-08-01 09:36:00,89.2,55.5,29.62,NE,45,6.9,6.9,32,0.00,CLR,,0.00,WeatherDisplay:10.37,2013-08-01 06:36:00,
2013-08-01 09:38:00,89.4,55.7,29.59,NNE,22,5.8,5.8,32,0.00,CLR,,0.00,WeatherDisplay:10.37,2013-08-01 06:38:00,
2013-08-01 09:39:00,89.4,54.8,29.59,NNW,338,9.2,9.2,31,0.00,CLR,,0.00,WeatherDisplay:10.37,2013-08-01 06:39:00,
2013-08-01 09:40:00,89.4,54.8,29.59,NNE,22,9.2,9.2,31,0.00,CLR,,0.00,WeatherDisplay:10.37,2013-08-01 06:40:00,
2013-08-01 09:42:00,89.2,54.6,29.59,North,0,8.1,8.1,31,0.00,CLR,,0.00,WeatherDisplay:10.37,2013-08-01 06:42:00,
2013-08-01 09:43:00,89.2,54.6,29.59,ENE,68,6.9,6.9,31,0.00,CLR,,0.00,WeatherDisplay:10.37,2013-08-01 06:43:00,
2013-08-01 09:44:00,89.6,55.0,29.59,NNE,22,5.9,5.9,31,0.00,CLR,,0.00,WeatherDisplay:10.37,2013-08-01 06:44:00,
2013-08-01 09:45:00,89.4,54.8,29.59,NNE,22,5.8,5.8,31,0.00,CLR,,0.00,WeatherDisplay:10.37,2013-08-01 06:45:00,
2013-08-01 09:48:00,89.8,54.2,29.59,NNE,22,6.9,6.9,30,0.00,CLR,,0.00,WeatherDisplay:10.37,2013-08-01 06:48:00,
2013-08-01 09:49:00,89.8,54.2,29.59,NNE,22,4.6,4.6,30,0.00,CLR,,0.00,WeatherDisplay:10.37,2013-08-01 06:49:00,
2013-08-01 09:50:00,89.8,54.2,29.59,NNE,22,4.6,4.6,30,0.00,CLR,,0.00,WeatherDisplay:10.37,2013-08-01 06:50:00,
2013-08-01 09:53:00,89.8,53.3,29.62,ENE,68,8.1,8.1,29,0.00,CLR,,0.00,WeatherDisplay:10.37,2013-08-01 06:53:00,
2013-08-01 09:54:00,89.4,53.9,29.62,NNE,22,8.1,8.1,30,0.00,CLR,,0.00,WeatherDisplay:10.37,2013-08-01 06:54:00,
2013-08-01 09:55:00,89.5,54.0,29.62,North,10,7.0,9.0,30,0.00,CLR,,0.00,WeatherDisplay:10.37,2013-08-01 06:55:00,
2013-08-01 09:58:00,89.8,54.2,29.62,NNW,338,8.1,8.1,30,0.00,CLR,,0.00,WeatherDisplay:10.37,2013-08-01 06:58:00,
2013-08-01 09:59:00,89.8,54.2,29.62,NNE,22,5.8,5.8,30,0.00,CLR,,0.00,WeatherDisplay:10.37,2013-08-01 06:59:00,
2013-08-01 10:00:00,90.0,53.4,29.62,NNE,22,6.2,6.2,29,0.00,CLR,,0.00,WeatherDisplay:10.37,2013-08-01 07:00:00,
2013-08-01 10:03:00,89.6,53.1,29.62,NW,315,8.1,8.1,29,0.00,CLR,,0.00,WeatherDisplay:10.37,2013-08-01 07:03:00,
2013-08-01 10:04:00,88.9,53.4,29.62,NW,315,12.8,12.8,30,0.00,CLR,,0.00,WeatherDisplay:10.37,2013-08-01 07:04:00,
2013-08-01 10:05:00,89.1,53.6,29.62,NNW,338,12.7,12.7,30,0.00,CLR,,0.00,WeatherDisplay:10.37,2013-08-01 07:05:00,
2013-08-01 10:08:00,88.3,53.0,29.59,NNW,338,13.8,13.8,30,0.00,CLR,,0.00,WeatherDisplay:10.37,2013-08-01 07:08:00,
2013-08-01 10:09:00,88.3,53.0,29.59,NNW,338,13.8,13.8,30,0.00,CLR,,0.00,WeatherDisplay:10.37,2013-08-01 07:09:00,
2013-08-01 10:10:00,88.2,52.8,29.59,North,0,11.5,11.5,30,0.00,CLR,,0.00,WeatherDisplay:10.37,2013-08-01 07:10:00,
2013-08-01 10:12:00,88.2,52.8,29.59,North,0,11.5,11.5,30,0.00,CLR,,0.00,WeatherDisplay:10.37,2013-08-01 07:12:00,
2013-08-01 10:13:00,88.2,52.8,29.59,WNW,292,12.7,12.7,30,0.00,CLR,,0.00,WeatherDisplay:10.37,2013-08-01 07:13:00,
2013-08-01 10:14:00,88.2,52.8,29.59,NNW,338,11.5,11.5,30,0.00,CLR,,0.00,WeatherDisplay:10.37,2013-08-01 07:14:00,
2013-08-01 10:15:00,88.7,53.3,29.59,WNW,292,11.5,11.5,30,0.00,CLR,,0.00,WeatherDisplay:10.37,2013-08-01 07:15:00,
2013-08-01 10:18:00,88.7,53.3,29.59,North,0,12.7,12.7,30,0.00,CLR,,0.00,WeatherDisplay:10.37,2013-08-01 07:18:00,
2013-08-01 10:19:00,89.6,54.1,29.59,NNW,338,6.7,6.7,30,0.00,CLR,,0.00,WeatherDisplay:10.37,2013-08-01 07:19:00,
2013-08-01 10:20:00,89.6,54.1,29.59,NE,45,10.5,10.5,30,0.00,CLR,,0.00,WeatherDisplay:10.37,2013-08-01 07:20:00,
2013-08-01 10:21:00,89.6,53.1,29.59,NNE,22,6.9,6.9,29,0.00,CLR,,0.00,WeatherDisplay:10.37,2013-08-01 07:21:00,
2013-08-01 10:23:00,89.6,53.1,29.59,NNW,338,12.7,12.7,29,0.00,CLR,,0.00,WeatherDisplay:10.37,2013-08-01 07:23:00,
2013-08-01 10:24:00,89.4,53.9,29.59,NE,45,10.4,10.4,30,0.00,CLR,,0.00,WeatherDisplay:10.37,2013-08-01 07:24:00,
2013-08-01 10:25:00,89.6,53.1,29.59,NNW,338,10.4,10.4,29,0.00,CLR,,0.00,WeatherDisplay:10.37,2013-08-01 07:25:00,
2013-08-01 10:26:00,89.4,53.9,29.59,North,0,9.2,9.2,30,0.00,CLR,,0.00,WeatherDisplay:10.37,2013-08-01 07:26:00,
2013-08-01 10:28:00,89.4,53.9,29.59,NNE,22,9.2,9.2,30,0.00,CLR,,0.00,WeatherDisplay:10.37,2013-08-01 07:28:00,
2013-08-01 10:29:00,89.8,53.3,29.59,North,0,8.1,8.1,29,0.00,CLR,,0.00,WeatherDisplay:10.37,2013-08-01 07:29:00,
2013-08-01 10:30:00,90.3,53.7,29.59,NW,315,6.2,6.2,29,0.00,CLR,,0.00,WeatherDisplay:10.37,2013-08-01 07:30:00,
2013-08-01 10:31:00,90.3,53.7,29.59,NNW,338,10.4,10.4,29,0.00,CLR,,0.00,WeatherDisplay:10.37,2013-08-01 07:31:00,
2013-08-01 10:32:00,90.1,53.6,29.59,North,0,8.1,8.1,29,0.00,CLR,,0.00,WeatherDisplay:10.37,2013-08-01 07:32:00,
2013-08-01 10:33:00,90.5,53.9,29.59,NNW,338,6.9,6.9,29,0.00,CLR,,0.00,WeatherDisplay:10.37,2013-08-01 07:33:00,
2013-08-01 10:34:00,90.7,54.1,29.59,NE,45,4.9,4.9,29,0.00,CLR,,0.00,WeatherDisplay:10.37,2013-08-01 07:34:00,
2013-08-01 10:35:00,90.7,54.1,29.59,North,0,10.4,10.4,29,0.00,CLR,,0.00,WeatherDisplay:10.37,2013-08-01 07:35:00,
2013-08-01 10:36:00,90.9,54.2,29.59,NE,45,10.0,10.0,29,0.00,CLR,,0.00,WeatherDisplay:10.37,2013-08-01 07:36:00,
2013-08-01 10:37:00,90.7,54.1,29.62,NW,315,10.4,10.4,29,0.00,CLR,,0.00,WeatherDisplay:10.37,2013-08-01 07:37:00,
2013-08-01 10:38:00,90.7,54.1,29.62,NNE,22,10.4,10.4,29,0.00,CLR,,0.00,WeatherDisplay:10.37,2013-08-01 07:38:00,
2013-08-01 10:39:00,91.2,54.5,29.62,NNE,22,6.2,6.2,29,0.00,CLR,,0.00,WeatherDisplay:10.37,2013-08-01 07:39:00,
2013-08-01 10:40:00,91.2,54.5,29.62,NNW,338,8.1,8.1,29,0.00,CLR,,0.00,WeatherDisplay:10.37,2013-08-01 07:40:00,
2013-08-01 10:41:00,90.5,53.9,29.62,North,0,11.5,11.5,29,0.00,CLR,,0.00,WeatherDisplay:10.37,2013-08-01 07:41:00,
2013-08-01 10:43:00,90.7,54.1,29.62,NNW,338,10.4,10.4,29,0.00,CLR,,0.00,WeatherDisplay:10.37,2013-08-01 07:43:00,
2013-08-01 10:44:00,91.9,54.2,29.62,NNW,338,5.8,5.8,28,0.00,CLR,,0.00,WeatherDisplay:10.37,2013-08-01 07:44:00,
2013-08-01 10:45:00,91.8,54.0,29.62,NE,45,5.8,5.8,28,0.00,CLR,,0.00,WeatherDisplay:10.37,2013-08-01 07:45:00,
2013-08-01 10:46:00,91.8,54.0,29.62,NNE,22,8.1,8.1,28,0.00,CLR,,0.00,WeatherDisplay:10.37,2013-08-01 07:46:00,
2013-08-01 10:48:00,91.6,53.9,29.62,North,0,10.4,10.4,28,0.00,CLR,,0.00,WeatherDisplay:10.37,2013-08-01 07:48:00,
2013-08-01 10:50:00,91.6,53.9,29.62,NNE,22,7.8,7.8,28,0.00,CLR,,0.00,WeatherDisplay:10.37,2013-08-01 07:50:00,
2013-08-01 10:52:00,92.1,54.3,29.62,NW,315,6.7,6.7,28,0.00,CLR,,0.00,WeatherDisplay:10.37,2013-08-01 07:52:00,
2013-08-01 10:53:00,91.8,50.9,29.62,NNW,338,12.7,12.7,25,0.00,CLR,,0.00,WeatherDisplay:10.37,2013-08-01 07:53:00,
2013-08-01 10:55:00,91.4,50.6,29.62,North,0,10.4,10.4,25,0.00,CLR,,0.00,WeatherDisplay:10.37,2013-08-01 07:55:00,
2013-08-01 10:57:00,91.8,50.9,29.62,NE,45,6.9,6.9,25,0.00,CLR,,0.00,WeatherDisplay:10.37,2013-08-01 07:57:00,
2013-08-01 10:58:00,91.6,53.9,29.62,NNE,22,8.1,8.1,28,0.00,CLR,,0.00,WeatherDisplay:10.37,2013-08-01 07:58:00,
2013-08-01 11:00:00,91.6,53.9,29.62,NNE,22,9.2,9.2,28,0.00,CLR,,0.00,WeatherDisplay:10.37,2013-08-01 08:00:00,
2013-08-01 11:02:00,92.3,54.5,29.62,NNE,22,8.1,8.1,28,0.00,CLR,,0.00,WeatherDisplay:10.37,2013-08-01 08:02:00,
2013-08-01 11:04:00,92.3,54.5,29.62,North,0,8.5,8.5,28,0.00,CLR,,0.00,WeatherDisplay:10.37,2013-08-01 08:04:00,
2013-08-01 11:07:00,92.1,51.2,29.62,NNE,22,9.2,9.2,25,0.00,CLR,,0.00,WeatherDisplay:10.37,2013-08-01 08:07:00,
2013-08-01 11:08:00,91.6,50.8,29.62,NW,315,12.5,12.5,25,0.00,CLR,,0.00,WeatherDisplay:10.37,2013-08-01 08:08:00,
2013-08-01 11:09:00,91.2,51.5,29.62,WNW,292,12.7,12.7,26,0.00,CLR,,0.00,WeatherDisplay:10.37,2013-08-01 08:09:00,
2013-08-01 11:12:00,90.7,51.1,29.62,NNE,22,12.7,12.7,26,0.00,CLR,,0.00,WeatherDisplay:10.37,2013-08-01 08:12:00,
2013-08-01 11:13:00,90.7,51.1,29.62,NNW,338,13.2,13.2,26,0.00,CLR,,0.00,WeatherDisplay:10.37,2013-08-01 08:13:00,
2013-08-01 11:14:00,90.7,51.1,29.62,NNE,22,13.8,13.8,26,0.00,CLR,,0.00,WeatherDisplay:10.37,2013-08-01 08:14:00,
2013-08-01 11:18:00,90.3,50.8,29.62,NNW,338,12.7,12.7,26,0.00,CLR,,0.00,WeatherDisplay:10.37,2013-08-01 08:18:00,
2013-08-01 11:20:00,90.1,50.6,29.62,NNW,338,15.0,15.0,26,0.00,CLR,,0.00,WeatherDisplay:10.37,2013-08-01 08:20:00,
2013-08-01 11:24:00,89.8,47.0,29.62,NNW,338,15.0,15.0,23,0.00,CLR,,0.00,WeatherDisplay:10.37,2013-08-01 08:24:00,
2013-08-01 11:25:00,89.8,47.0,29.62,NNW,338,10.4,10.4,23,0.00,CLR,,0.00,WeatherDisplay:10.37,2013-08-01 08:25:00,
2013-08-01 11:30:00,90.0,47.2,29.62,NNW,338,12.7,12.7,23,0.00,CLR,,0.00,WeatherDisplay:10.37,2013-08-01 08:30:00,
2013-08-01 11:31:00,90.1,47.3,29.62,WSW,248,10.4,10.4,23,0.00,CLR,,0.00,WeatherDisplay:10.37,2013-08-01 08:31:00,
2013-08-01 11:35:00,89.6,46.9,29.62,NNW,338,19.6,19.6,23,0.00,CLR,,0.00,WeatherDisplay:10.37,2013-08-01 08:35:00,
2013-08-01 11:37:00,90.0,47.2,29.62,NNE,22,8.1,8.1,23,0.00,CLR,,0.00,WeatherDisplay:10.37,2013-08-01 08:37:00,
2013-08-01 11:40:00,90.5,47.6,29.62,NNW,338,12.7,12.7,23,0.00,CLR,,0.00,WeatherDisplay:10.37,2013-08-01 08:40:00,
2013-08-01 11:42:00,90.3,47.5,29.62,NNW,338,17.3,17.3,23,0.00,CLR,,0.00,WeatherDisplay:10.37,2013-08-01 08:42:00,
2013-08-01 11:44:00,90.0,50.5,29.62,NNW,338,19.6,19.6,26,0.00,CLR,,0.00,WeatherDisplay:10.37,2013-08-01 08:44:00,
2013-08-01 11:46:00,90.0,50.5,29.62,North,0,19.6,19.6,26,0.00,CLR,,0.00,WeatherDisplay:10.37,2013-08-01 08:46:00,
2013-08-01 11:49:00,90.3,50.8,29.62,North,0,12.7,12.7,26,0.00,CLR,,0.00,WeatherDisplay:10.37,2013-08-01 08:49:00,
2013-08-01 11:50:00,90.3,50.8,29.62,NNW,340,9.0,13.0,26,0.00,CLR,,0.00,WeatherDisplay:10.37,2013-08-01 08:50:00,
2013-08-01 11:54:00,90.7,51.1,29.62,NNW,338,12.7,12.7,26,0.00,CLR,,0.00,WeatherDisplay:10.37,2013-08-01 08:54:00,
2013-08-01 11:55:00,90.6,51.0,29.62,NNW,339,8.0,13.0,26,0.00,CLR,,0.00,WeatherDisplay:10.37,2013-08-01 08:55:00,
2013-08-01 11:57:00,90.7,51.1,29.62,North,0,15.0,15.0,26,0.00,CLR,,0.00,WeatherDisplay:10.37,2013-08-01 08:57:00,
2013-08-01 12:00:00,90.3,50.7,29.62,NNW,335,12.0,17.0,26,0.00,CLR,,0.00,WeatherDisplay:10.37,2013-08-01 09:00:00,
2013-08-01 12:02:00,90.1,50.6,29.62,NNW,338,16.1,16.1,26,0.00,CLR,,0.00,WeatherDisplay:10.37,2013-08-01 09:02:00,
2013-08-01 12:06:00,90.0,50.5,29.62,NNW,338,18.4,18.4,26,0.00,CLR,,0.00,WeatherDisplay:10.37,2013-08-01 09:06:00,
2013-08-01 12:07:00,89.8,50.3,29.62,NNE,22,15.0,15.0,26,0.00,CLR,,0.00,WeatherDisplay:10.37,2013-08-01 09:07:00,
2013-08-01 12:12:00,89.8,50.3,29.65,NNW,338,15.0,15.0,26,0.00,CLR,,0.00,WeatherDisplay:10.37,2013-08-01 09:12:00,
2013-08-01 12:15:00,89.8,47.0,29.65,NW,315,16.1,16.1,23,0.00,CLR,,0.00,WeatherDisplay:10.37,2013-08-01 09:15:00,
2013-08-01 12:17:00,90.0,50.5,29.65,NW,315,15.0,15.0,26,0.00,CLR,,0.00,WeatherDisplay:10.37,2013-08-01 09:17:00,
2013-08-01 12:21:00,90.0,50.5,29.65,NNW,338,12.7,12.7,26,0.00,CLR,,0.00,WeatherDisplay:10.37,2013-08-01 09:21:00,
2013-08-01 12:23:00,90.0,50.5,29.65,NNE,22,13.8,13.8,26,0.00,CLR,,0.00,WeatherDisplay:10.37,2013-08-01 09:23:00,
2013-08-01 12:27:00,90.7,51.1,29.65,NNE,22,12.7,12.7,26,0.00,CLR,,0.00,WeatherDisplay:10.37,2013-08-01 09:27:00,
2013-08-01 12:29:00,91.0,48.1,29.65,NNE,22,12.1,12.1,23,0.00,CLR,,0.00,WeatherDisplay:10.37,2013-08-01 09:29:00,
2013-08-01 12:30:00,91.0,51.4,29.65,NNW,338,15.0,15.0,26,0.00,CLR,,0.00,WeatherDisplay:10.37,2013-08-01 09:30:00,
2013-08-01 12:34:00,91.4,48.4,29.65,NNW,338,15.0,15.0,23,0.00,CLR,,0.00,WeatherDisplay:10.37,2013-08-01 09:34:00,
2013-08-01 12:36:00,91.0,48.1,29.65,NNW,338,13.8,13.8,23,0.00,CLR,,0.00,WeatherDisplay:10.37,2013-08-01 09:36:00,
2013-08-01 12:37:00,90.9,47.9,29.65,NNW,338,17.3,17.3,23,0.00,CLR,,0.00,WeatherDisplay:10.37,2013-08-01 09:37:00,
2013-08-01 12:41:00,91.8,48.7,29.65,NNW,338,10.4,10.4,23,0.00,CLR,,0.00,WeatherDisplay:10.37,2013-08-01 09:41:00,
2013-08-01 12:42:00,91.6,48.5,29.65,NE,45,10.4,10.4,23,0.00,CLR,,0.00,WeatherDisplay:10.37,2013-08-01 09:42:00,
2013-08-01 12:43:00,91.8,48.7,29.65,NNE,22,10.4,10.4,23,0.00,CLR,,0.00,WeatherDisplay:10.37,2013-08-01 09:43:00,
2013-08-01 12:48:00,90.9,47.9,29.65,NW,315,20.7,20.7,23,0.00,CLR,,0.00,WeatherDisplay:10.37,2013-08-01 09:48:00,
2013-08-01 12:49:00,91.2,48.2,29.65,WNW,292,8.1,10.0,23,0.00,CLR,,0.00,WeatherDisplay:10.37,2013-08-01 09:49:00,
2013-08-01 12:50:00,91.9,48.8,29.65,NNW,338,15.4,15.4,23,0.00,CLR,,0.00,WeatherDisplay:10.37,2013-08-01 09:50:00,
2013-08-01 12:54:00,92.7,49.4,29.65,NNW,338,9.2,9.2,23,0.00,CLR,,0.00,WeatherDisplay:10.37,2013-08-01 09:54:00,
2013-08-01 12:56:00,92.1,49.0,29.65,NNW,338,10.4,10.4,23,0.00,CLR,,0.00,WeatherDisplay:10.37,2013-08-01 09:56:00,
2013-08-01 13:00:00,93.4,48.8,29.65,North,8,6.0,16.0,22,0.00,CLR,,0.00,WeatherDisplay:10.37,2013-08-01 10:00:00,
2013-08-01 13:01:00,92.8,49.6,29.65,NNE,22,12.7,12.7,23,0.00,CLR,,0.00,WeatherDisplay:10.37,2013-08-01 10:01:00,
2013-08-01 13:05:00,92.6,49.4,29.65,NNE,16,8.0,13.0,23,0.00,CLR,,0.00,WeatherDisplay:10.37,2013-08-01 10:05:00,
2013-08-01 13:06:00,92.5,49.3,29.65,NNE,22,8.1,8.1,23,0.00,CLR,,0.00,WeatherDisplay:10.37,2013-08-01 10:06:00,
2013-08-01 13:10:00,91.8,48.7,29.65,North,357,12.0,16.0,23,0.00,CLR,,0.00,WeatherDisplay:10.37,2013-08-01 10:10:00,
2013-08-01 13:12:00,92.5,49.3,29.65,NNW,338,10.0,10.0,23,0.00,CLR,,0.00,WeatherDisplay:10.37,2013-08-01 10:12:00,
2013-08-01 13:15:00,92.5,49.3,29.65,NNW,338,10.4,10.4,23,0.00,CLR,,0.00,WeatherDisplay:10.37,2013-08-01 10:15:00,
2013-08-01 13:18:00,92.7,51.7,29.65,NNE,22,9.8,9.8,25,0.00,CLR,,0.00,WeatherDisplay:10.37,2013-08-01 10:18:00,
2013-08-01 13:19:00,92.7,51.7,29.65,NE,45,9.2,9.2,25,0.00,CLR,,0.00,WeatherDisplay:10.37,2013-08-01 10:19:00,
2013-08-01 13:22:00,92.3,49.1,29.65,NNE,22,10.4,10.4,23,0.00,CLR,,0.00,WeatherDisplay:10.37,2013-08-01 10:22:00,
2013-08-01 13:25:00,92.3,51.4,29.62,NNW,338,10.9,10.9,25,0.00,CLR,,0.00,WeatherDisplay:10.37,2013-08-01 10:25:00,
2013-08-01 13:29:00,91.8,50.9,29.62,NNW,338,10.4,10.4,25,0.00,CLR,,0.00,WeatherDisplay:10.37,2013-08-01 10:29:00,
2013-08-01 13:30:00,91.4,50.6,29.62,NNW,338,12.7,12.7,25,0.00,CLR,,0.00,WeatherDisplay:10.37,2013-08-01 10:30:00,
2013-08-01 13:31:00,91.6,50.8,29.62,North,0,12.7,12.7,25,0.00,CLR,,0.00,WeatherDisplay:10.37,2013-08-01 10:31:00,
2013-08-01 13:35:00,91.8,50.9,29.62,North,0,12.7,12.7,25,0.00,CLR,,0.00,WeatherDisplay:10.37,2013-08-01 10:35:00,
2013-08-01 13:37:00,92.1,51.2,29.62,ENE,68,9.2,9.2,25,0.00,CLR,,0.00,WeatherDisplay:10.37,2013-08-01 10:37:00,
2013-08-01 13:40:00,91.8,50.9,29.65,NNE,22,15.0,15.0,25,0.00,CLR,,0.00,WeatherDisplay:10.37,2013-08-01 10:40:00,
2013-08-01 13:42:00,91.4,50.6,29.65,ENE,68,11.5,11.5,25,0.00,CLR,,0.00,WeatherDisplay:10.37,2013-08-01 10:42:00,
2013-08-01 13:45:00,92.1,51.2,29.65,NNE,22,5.0,15.0,25,0.00,CLR,,0.00,WeatherDisplay:10.37,2013-08-01 10:45:00,
2013-08-01 13:47:00,92.3,51.4,29.65,NNW,338,15.0,15.0,25,0.00,CLR,,0.00,WeatherDisplay:10.37,2013-08-01 10:47:00,
2013-08-01 13:48:00,91.9,51.1,29.65,NW,315,11.5,11.5,25,0.00,CLR,,0.00,WeatherDisplay:10.37,2013-08-01 10:48:00,
2013-08-01 13:50:00,92.1,51.2,29.65,NNE,22,8.7,8.7,25,0.00,CLR,,0.00,WeatherDisplay:10.37,2013-08-01 10:50:00,
2013-08-01 13:55:00,91.2,51.5,29.62,NNE,22,9.2,9.2,26,0.00,CLR,,0.00,WeatherDisplay:10.37,2013-08-01 10:55:00,
2013-08-01 14:02:00,90.7,51.1,29.62,East,90,10.4,10.4,26,0.00,CLR,,0.00,WeatherDisplay:10.37,2013-08-01 11:02:00,
2013-08-01 14:07:00,91.8,50.9,29.62,ENE,68,10.0,10.0,25,0.00,CLR,,0.00,WeatherDisplay:10.37,2013-08-01 11:07:00,
2013-08-01 14:11:00,92.3,51.4,29.62,NNW,338,13.8,13.8,25,0.00,CLR,,0.00,WeatherDisplay:10.37,2013-08-01 11:11:00,
2013-08-01 14:13:00,92.7,51.7,29.62,NNE,22,9.7,9.7,25,0.00,CLR,,0.00,WeatherDisplay:10.37,2013-08-01 11:13:00,
2013-08-01 14:17:00,92.1,51.2,29.62,NNE,22,17.6,17.6,25,0.00,CLR,,0.00,WeatherDisplay:10.37,2013-08-01 11:17:00,
2013-08-01 14:18:00,92.1,51.2,29.62,NNE,22,17.3,17.3,25,0.00,CLR,,0.00,WeatherDisplay:10.37,2013-08-01 11:18:00,
2013-08-01 14:19:00,92.3,51.4,29.62,NNE,22,11.5,11.5,25,0.00,CLR,,0.00,WeatherDisplay:10.37,2013-08-01 11:19:00,
2013-08-01 14:24:00,91.4,50.6,29.62,ENE,68,15.0,15.0,25,0.00,CLR,,0.00,WeatherDisplay:10.37,2013-08-01 11:24:00,
2013-08-01 14:25:00,91.8,50.9,29.62,North,0,8.1,8.1,25,0.00,CLR,,0.00,WeatherDisplay:10.37,2013-08-01 11:25:00,
2013-08-01 14:30:00,91.8,50.9,29.62,NNE,28,7.0,14.0,25,0.00,CLR,,0.00,WeatherDisplay:10.37,2013-08-01 11:30:00,
2013-08-01 14:31:00,91.9,51.1,29.62,NE,45,15.0,15.0,25,0.00,CLR,,0.00,WeatherDisplay:10.37,2013-08-01 11:31:00,
2013-08-01 14:35:00,91.8,50.9,29.62,NNW,338,12.7,12.7,25,0.00,CLR,,0.00,WeatherDisplay:10.37,2013-08-01 11:35:00,
2013-08-01 14:36:00,91.6,53.9,29.62,NNW,338,10.5,10.5,28,0.00,CLR,,0.00,WeatherDisplay:10.37,2013-08-01 11:36:00,
2013-08-01 14:39:00,91.2,53.6,29.62,North,0,12.7,12.7,28,0.00,CLR,,0.00,WeatherDisplay:10.37,2013-08-01 11:39:00,
2013-08-01 14:42:00,91.0,53.4,29.62,North,0,11.5,11.5,28,0.00,CLR,,0.00,WeatherDisplay:10.37,2013-08-01 11:42:00,
2013-08-01 14:43:00,91.0,53.4,29.62,NNW,338,10.4,10.4,28,0.00,CLR,,0.00,WeatherDisplay:10.37,2013-08-01 11:43:00,
2013-08-01 14:45:00,90.9,53.3,29.62,North,10,9.0,12.0,28,0.00,CLR,,0.00,WeatherDisplay:10.37,2013-08-01 11:45:00,
2013-08-01 14:47:00,91.6,53.9,29.62,NNW,338,9.2,9.2,28,0.00,CLR,,0.00,WeatherDisplay:10.37,2013-08-01 11:47:00,
2013-08-01 14:48:00,91.6,50.8,29.62,NNE,22,9.2,9.2,25,0.00,CLR,,0.00,WeatherDisplay:10.37,2013-08-01 11:48:00,
2013-08-01 14:50:00,91.2,51.5,29.62,NNE,22,10.4,10.4,26,0.00,CLR,,0.00,WeatherDisplay:10.37,2013-08-01 11:50:00,
2013-08-01 14:54:00,91.6,53.9,29.62,NE,45,10.4,10.4,28,0.00,CLR,,0.00,WeatherDisplay:10.37,2013-08-01 11:54:00,
2013-08-01 14:56:00,91.0,51.4,29.62,NE,45,11.5,11.5,26,0.00,CLR,,0.00,WeatherDisplay:10.37,2013-08-01 11:56:00,
2013-08-01 14:59:00,92.3,51.4,29.62,NNW,338,8.1,8.1,25,0.00,CLR,,0.00,WeatherDisplay:10.37,2013-08-01 11:59:00,
2013-08-01 15:01:00,92.7,51.7,29.62,NNW,338,6.4,6.4,25,0.00,CLR,,0.00,WeatherDisplay:10.37,2013-08-01 12:01:00,
2013-08-01 15:05:00,92.1,51.2,29.62,NNE,22,12.7,12.7,25,0.00,CLR,,0.00,WeatherDisplay:10.37,2013-08-01 12:05:00,
2013-08-01 15:08:00,91.9,48.8,29.62,NNW,338,12.5,12.5,23,0.00,CLR,,0.00,WeatherDisplay:10.37,2013-08-01 12:08:00,
2013-08-01 15:10:00,91.8,49.9,29.62,North,356,10.0,17.0,24,0.00,CLR,,0.00,WeatherDisplay:10.37,2013-08-01 12:10:00,
2013-08-01 15:11:00,91.6,50.8,29.62,NW,315,12.7,12.7,25,0.00,CLR,,0.00,WeatherDisplay:10.37,2013-08-01 12:11:00,
2013-08-01 15:15:00,92.8,51.8,29.62,North,358,7.0,13.0,25,0.00,CLR,,0.00,WeatherDisplay:10.37,2013-08-01 12:15:00,
2013-08-01 15:18:00,92.3,51.4,29.62,NE,45,9.2,9.4,25,0.00,CLR,,0.00,WeatherDisplay:10.37,2013-08-01 12:18:00,
2013-08-01 15:20:00,92.8,51.8,29.62,NE,45,7.1,7.1,25,0.00,CLR,,0.00,WeatherDisplay:10.37,2013-08-01 12:20:00,
2013-08-01 15:23:00,93.0,52.0,29.62,NNW,338,10.4,10.4,25,0.00,CLR,,0.00,WeatherDisplay:10.37,2013-08-01 12:23:00,
2013-08-01 15:25:00,91.9,48.8,29.62,North,0,12.7,12.7,23,0.00,CLR,,0.00,WeatherDisplay:10.37,2013-08-01 12:25:00,
2013-08-01 15:30:00,92.5,49.3,29.62,North,2,7.0,13.0,23,0.00,CLR,,0.00,WeatherDisplay:10.37,2013-08-01 12:30:00,
2013-08-01 15:33:00,91.4,48.4,29.62,NNE,22,12.7,12.7,23,0.00,CLR,,0.00,WeatherDisplay:10.37,2013-08-01 12:33:00,
2013-08-01 15:36:00,91.8,48.7,29.62,North,0,15.0,15.0,23,0.00,CLR,,0.00,WeatherDisplay:10.37,2013-08-01 12:36:00,
2013-08-01 15:40:00,91.9,48.8,29.62,NNE,22,16.1,16.1,23,0.00,CLR,,0.00,WeatherDisplay:10.37,2013-08-01 12:40:00,
2013-08-01 15:41:00,91.8,48.7,29.62,North,0,16.1,16.1,23,0.00,CLR,,0.00,WeatherDisplay:10.37,2013-08-01 12:41:00,
2013-08-01 15:46:00,92.3,49.1,29.62,NNE,22,8.1,8.1,23,0.00,CLR,,0.00,WeatherDisplay:10.37,2013-08-01 12:46:00,
2013-08-01 15:47:00,92.3,49.1,29.62,NNE,22,12.7,12.7,23,0.00,CLR,,0.00,WeatherDisplay:10.37,2013-08-01 12:47:00,
2013-08-01 15:49:00,91.9,48.8,29.62,ENE,68,10.5,10.5,23,0.00,CLR,,0.00,WeatherDisplay:10.37,2013-08-01 12:49:00,
2013-08-01 15:54:00,92.1,49.0,29.62,NNW,338,13.8,13.8,23,0.00,CLR,,0.00,WeatherDisplay:10.37,2013-08-01 12:54:00,
2013-08-01 15:59:00,93.6,49.0,29.62,NNW,338,8.1,8.1,22,0.00,CLR,,0.00,WeatherDisplay:10.37,2013-08-01 12:59:00,
2013-08-01 16:00:00,93.6,49.0,29.62,NE,45,8.1,8.1,22,0.00,CLR,,0.00,WeatherDisplay:10.37,2013-08-01 13:00:00,
2013-08-01 16:04:00,93.2,48.7,29.62,NNE,22,13.8,13.8,22,0.00,CLR,,0.00,WeatherDisplay:10.37,2013-08-01 13:04:00,
2013-08-01 16:06:00,92.3,49.1,29.62,North,0,17.3,17.3,23,0.00,CLR,,0.00,WeatherDisplay:10.37,2013-08-01 13:06:00,
2013-08-01 16:10:00,92.1,49.0,29.62,NNE,22,8.5,8.5,23,0.00,CLR,,0.00,WeatherDisplay:10.37,2013-08-01 13:10:00,
2013-08-01 16:13:00,92.5,49.3,29.62,North,0,6.9,6.9,23,0.00,CLR,,0.00,WeatherDisplay:10.37,2013-08-01 13:13:00,
2013-08-01 16:16:00,92.5,49.3,29.62,NNW,338,11.5,11.5,23,0.00,CLR,,0.00,WeatherDisplay:10.37,2013-08-01 13:16:00,
2013-08-01 16:19:00,92.7,49.4,29.62,ENE,68,15.0,15.0,23,0.00,CLR,,0.00,WeatherDisplay:10.37,2013-08-01 13:19:00,
2013-08-01 16:24:00,92.5,49.3,29.62,NNW,338,9.2,9.2,23,0.00,CLR,,0.00,WeatherDisplay:10.37,2013-08-01 13:24:00,
2013-08-01 16:25:00,92.5,49.3,29.62,North,6,7.0,10.0,23,0.00,CLR,,0.00,WeatherDisplay:10.37,2013-08-01 13:25:00,
2013-08-01 16:30:00,92.1,49.0,29.62,North,355,7.0,14.0,23,0.00,CLR,,0.00,WeatherDisplay:10.37,2013-08-01 13:30:00,
2013-08-01 16:35:00,92.8,49.6,29.62,NNW,338,8.1,8.1,23,0.00,CLR,,0.00,WeatherDisplay:10.37,2013-08-01 13:35:00,
2013-08-01 16:36:00,92.7,49.4,29.62,NNW,338,9.7,9.7,23,0.00,CLR,,0.00,WeatherDisplay:10.37,2013-08-01 13:36:00,
2013-08-01 16:40:00,91.9,48.8,29.59,WNW,292,13.8,13.8,23,0.00,CLR,,0.00,WeatherDisplay:10.37,2013-08-01 13:40:00,
2013-08-01 16:41:00,91.9,48.8,29.59,NNW,338,23.0,23.0,23,0.00,CLR,,0.00,WeatherDisplay:10.37,2013-08-01 13:41:00,
2013-08-01 16:46:00,90.9,47.9,29.59,North,0,13.8,13.8,23,0.00,CLR,,0.00,WeatherDisplay:10.37,2013-08-01 13:46:00,
2013-08-01 16:47:00,90.7,47.8,29.59,NNW,338,12.7,12.7,23,0.00,CLR,,0.00,WeatherDisplay:10.37,2013-08-01 13:47:00,
2013-08-01 16:53:00,91.0,48.1,29.62,NNW,338,16.1,16.1,23,0.00,CLR,,0.00,WeatherDisplay:10.37,2013-08-01 13:53:00,
2013-08-01 16:54:00,90.5,47.6,29.62,NNE,22,17.3,17.3,23,0.00,CLR,,0.00,WeatherDisplay:10.37,2013-08-01 13:54:00,
2013-08-01 16:58:00,91.0,48.1,29.62,NNW,338,12.3,12.3,23,0.00,CLR,,0.00,WeatherDisplay:10.37,2013-08-01 13:58:00,
2013-08-01 17:00:00,91.2,48.2,29.62,North,354,8.0,14.0,23,0.00,CLR,,0.00,WeatherDisplay:10.37,2013-08-01 14:00:00,
2013-08-01 17:02:00,92.3,49.1,29.62,NNE,22,10.0,10.0,23,0.00,CLR,,0.00,WeatherDisplay:10.37,2013-08-01 14:02:00,
2013-08-01 17:04:00,91.2,48.2,29.62,North,0,13.8,13.8,23,0.00,CLR,,0.00,WeatherDisplay:10.37,2013-08-01 14:04:00,
2013-08-01 17:06:00,91.4,48.4,29.62,WNW,292,15.0,15.0,23,0.00,CLR,,0.00,WeatherDisplay:10.37,2013-08-01 14:06:00,
2013-08-01 17:09:00,91.2,48.2,29.62,North,0,13.8,13.8,23,0.00,CLR,,0.00,WeatherDisplay:10.37,2013-08-01 14:09:00,
2013-08-01 17:10:00,91.4,48.4,29.62,NNW,338,11.5,11.5,23,0.00,CLR,,0.00,WeatherDisplay:10.37,2013-08-01 14:10:00,
2013-08-01 17:11:00,91.2,48.2,29.62,NW,315,13.2,13.2,23,0.00,CLR,,0.00,WeatherDisplay:10.37,2013-08-01 14:11:00,
2013-08-01 17:15:00,91.6,48.5,29.62,North,0,12.3,12.3,23,0.00,CLR,,0.00,WeatherDisplay:10.37,2013-08-01 14:15:00,
2013-08-01 17:16:00,91.4,48.4,29.62,North,0,15.2,15.2,23,0.00,CLR,,0.00,WeatherDisplay:10.37,2013-08-01 14:16:00,
2013-08-01 17:22:00,90.9,47.9,29.62,NW,315,10.4,10.4,23,0.00,CLR,,0.00,WeatherDisplay:10.37,2013-08-01 14:22:00,
2013-08-01 17:23:00,91.2,48.2,29.62,NNE,22,10.4,10.4,23,0.00,CLR,,0.00,WeatherDisplay:10.37,2013-08-01 14:23:00,
2013-08-01 17:25:00,91.2,48.2,29.62,NNW,338,13.8,13.8,23,0.00,CLR,,0.00,WeatherDisplay:10.37,2013-08-01 14:25:00,
2013-08-01 17:28:00,91.2,48.2,29.62,NNW,338,12.7,12.7,23,0.00,CLR,,0.00,WeatherDisplay:10.37,2013-08-01 14:28:00,
2013-08-01 17:35:00,91.4,48.4,29.62,NNW,338,13.8,13.8,23,0.00,CLR,,0.00,WeatherDisplay:10.37,2013-08-01 14:35:00,
2013-08-01 17:37:00,91.2,48.2,29.62,NNW,338,15.0,15.0,23,0.00,CLR,,0.00,WeatherDisplay:10.37,2013-08-01 14:37:00,
2013-08-01 17:41:00,91.2,48.2,29.62,WNW,292,10.4,10.4,23,0.00,CLR,,0.00,WeatherDisplay:10.37,2013-08-01 14:41:00,
2013-08-01 17:42:00,90.9,47.9,29.62,NNW,338,13.8,13.8,23,0.00,CLR,,0.00,WeatherDisplay:10.37,2013-08-01 14:42:00,
2013-08-01 17:46:00,90.9,47.9,29.62,North,0,12.7,12.7,23,0.00,CLR,,0.00,WeatherDisplay:10.37,2013-08-01 14:46:00,
2013-08-01 17:48:00,90.9,47.9,29.62,North,0,10.4,10.4,23,0.00,CLR,,0.00,WeatherDisplay:10.37,2013-08-01 14:48:00,
2013-08-01 17:52:00,91.0,48.1,29.62,NNE,22,10.7,10.7,23,0.00,CLR,,0.00,WeatherDisplay:10.37,2013-08-01 14:52:00,
2013-08-01 17:54:00,90.5,47.6,29.62,NNW,338,16.1,16.1,23,0.00,CLR,,0.00,WeatherDisplay:10.37,2013-08-01 14:54:00,
2013-08-01 17:57:00,90.3,47.5,29.62,NNW,338,12.5,12.5,23,0.00,CLR,,0.00,WeatherDisplay:10.37,2013-08-01 14:57:00,
2013-08-01 18:00:00,90.1,47.3,29.62,NNE,22,11.5,11.5,23,0.00,CLR,,0.00,WeatherDisplay:10.37,2013-08-01 15:00:00,
2013-08-01 18:05:00,89.8,47.0,29.62,NNW,338,10.4,10.4,23,0.00,CLR,,0.00,WeatherDisplay:10.37,2013-08-01 15:05:00,
2013-08-01 18:06:00,90.0,47.2,29.62,NE,45,10.4,10.4,23,0.00,CLR,,0.00,WeatherDisplay:10.37,2013-08-01 15:06:00,
2013-08-01 18:11:00,89.8,47.0,29.62,NNE,22,15.0,15.0,23,0.00,CLR,,0.00,WeatherDisplay:10.37,2013-08-01 15:11:00,
2013-08-01 18:18:00,91.2,48.2,29.62,ENE,68,5.8,5.8,23,0.00,CLR,,0.00,WeatherDisplay:10.37,2013-08-01 15:18:00,
2013-08-01 18:20:00,91.2,48.2,29.62,North,9,3.0,14.0,23,0.00,CLR,,0.00,WeatherDisplay:10.37,2013-08-01 15:20:00,
2013-08-01 18:26:00,90.7,47.8,29.62,NNE,22,11.5,11.5,23,0.00,CLR,,0.00,WeatherDisplay:10.37,2013-08-01 15:26:00,
2013-08-01 18:27:00,90.7,47.8,29.62,North,0,11.5,11.5,23,0.00,CLR,,0.00,WeatherDisplay:10.37,2013-08-01 15:27:00,
2013-08-01 18:28:00,90.7,47.8,29.62,NNW,338,4.6,4.6,23,0.00,CLR,,0.00,WeatherDisplay:10.37,2013-08-01 15:28:00,
2013-08-01 18:32:00,90.0,47.2,29.62,North,0,10.4,10.4,23,0.00,CLR,,0.00,WeatherDisplay:10.37,2013-08-01 15:32:00,
2013-08-01 18:33:00,89.4,47.9,29.62,North,0,12.7,12.7,24,0.00,CLR,,0.00,WeatherDisplay:10.37,2013-08-01 15:33:00,
2013-08-01 18:37:00,90.1,47.3,29.65,North,0,6.0,6.0,23,0.00,CLR,,0.00,WeatherDisplay:10.37,2013-08-01 15:37:00,
2013-08-01 18:38:00,90.0,47.2,29.65,NNW,338,9.2,9.2,23,0.00,CLR,,0.00,WeatherDisplay:10.37,2013-08-01 15:38:00,
2013-08-01 18:43:00,89.2,47.7,29.65,WNW,292,10.4,10.4,24,0.00,CLR,,0.00,WeatherDisplay:10.37,2013-08-01 15:43:00,
2013-08-01 18:44:00,89.2,47.7,29.65,North,0,10.4,10.4,24,0.00,CLR,,0.00,WeatherDisplay:10.37,2013-08-01 15:44:00,
2013-08-01 18:45:00,89.2,47.7,29.65,North,357,8.0,12.0,24,0.00,CLR,,0.00,WeatherDisplay:10.37,2013-08-01 15:45:00,
2013-08-01 18:50:00,90.0,47.2,29.65,North,360,6.0,12.0,23,0.00,CLR,,0.00,WeatherDisplay:10.37,2013-08-01 15:50:00,
2013-08-01 18:53:00,90.0,47.2,29.62,NNW,338,9.2,9.2,23,0.00,CLR,,0.00,WeatherDisplay:10.37,2013-08-01 15:53:00,
2013-08-01 18:54:00,90.1,47.3,29.62,NNW,338,9.2,9.2,23,0.00,CLR,,0.00,WeatherDisplay:10.37,2013-08-01 15:54:00,
2013-08-01 18:55:00,90.1,47.3,29.62,NNE,22,5.8,5.8,23,0.00,CLR,,0.00,WeatherDisplay:10.37,2013-08-01 15:55:00,
2013-08-01 18:59:00,90.1,47.3,29.62,ENE,68,7.4,7.4,23,0.00,CLR,,0.00,WeatherDisplay:10.37,2013-08-01 15:59:00,
2013-08-01 19:02:00,89.8,47.0,29.62,North,0,8.1,8.1,23,0.00,CLR,,0.00,WeatherDisplay:10.37,2013-08-01 16:02:00,
2013-08-01 19:04:00,90.0,47.2,29.62,NNW,338,5.8,5.8,23,0.00,CLR,,0.00,WeatherDisplay:10.37,2013-08-01 16:04:00,
2013-08-01 19:07:00,89.8,47.0,29.62,NNE,22,13.7,13.7,23,0.00,CLR,,0.00,WeatherDisplay:10.37,2013-08-01 16:07:00,
2013-08-01 19:10:00,89.6,46.9,29.65,ENE,68,10.2,10.2,23,0.00,CLR,,0.00,WeatherDisplay:10.37,2013-08-01 16:10:00,
2013-08-01 19:13:00,89.4,47.9,29.65,NNE,22,10.4,10.4,24,0.00,CLR,,0.00,WeatherDisplay:10.37,2013-08-01 16:13:00,
2013-08-01 19:14:00,89.2,47.7,29.65,ENE,68,8.1,8.1,24,0.00,CLR,,0.00,WeatherDisplay:10.37,2013-08-01 16:14:00,
2013-08-01 19:19:00,89.1,47.6,29.65,NE,45,10.5,10.5,24,0.00,CLR,,0.00,WeatherDisplay:10.37,2013-08-01 16:19:00,
2013-08-01 19:20:00,89.1,47.6,29.65,NNE,32,7.0,12.0,24,0.00,CLR,,0.00,WeatherDisplay:10.37,2013-08-01 16:20:00,
2013-08-01 19:25:00,89.2,47.7,29.65,NE,45,5.8,5.8,24,0.00,CLR,,0.00,WeatherDisplay:10.37,2013-08-01 16:25:00,
2013-08-01 19:28:00,89.4,47.9,29.65,NNE,22,4.6,4.6,24,0.00,CLR,,0.00,WeatherDisplay:10.37,2013-08-01 16:28:00,
2013-08-01 19:32:00,89.1,47.6,29.65,NNW,338,12.7,12.7,24,0.00,CLR,,0.00,WeatherDisplay:10.37,2013-08-01 16:32:00,
2013-08-01 19:35:00,88.9,47.5,29.65,North,353,5.0,13.0,24,0.00,CLR,,0.00,WeatherDisplay:10.37,2013-08-01 16:35:00,
2013-08-01 19:37:00,88.7,47.3,29.65,NE,45,8.1,8.1,24,0.00,CLR,,0.00,WeatherDisplay:10.37,2013-08-01 16:37:00,
2013-08-01 19:38:00,88.5,47.1,29.65,NNE,22,8.1,8.1,24,0.00,CLR,,0.00,WeatherDisplay:10.37,2013-08-01 16:38:00,
2013-08-01 19:40:00,88.5,47.1,29.65,NNW,338,6.9,6.9,24,0.00,CLR,,0.00,WeatherDisplay:10.37,2013-08-01 16:40:00,
2013-08-01 19:43:00,88.3,47.0,29.65,ENE,68,9.2,9.2,24,0.00,CLR,,0.00,WeatherDisplay:10.37,2013-08-01 16:43:00,
2013-08-01 19:45:00,88.2,46.8,29.65,ENE,68,7.8,7.8,24,0.00,CLR,,0.00,WeatherDisplay:10.37,2013-08-01 16:45:00,
2013-08-01 19:50:00,88.0,46.7,29.65,ENE,68,6.9,6.9,24,0.00,CLR,,0.00,WeatherDisplay:10.37,2013-08-01 16:50:00,
2013-08-01 19:51:00,88.0,46.7,29.65,NNE,22,5.8,5.8,24,0.00,CLR,,0.00,WeatherDisplay:10.37,2013-08-01 16:51:00,
2013-08-01 19:56:00,88.2,46.8,29.65,ENE,68,5.8,5.8,24,0.00,CLR,,0.00,WeatherDisplay:10.37,2013-08-01 16:56:00,
2013-08-01 19:58:00,88.0,46.7,29.65,NNE,22,8.1,8.1,24,0.00,CLR,,0.00,WeatherDisplay:10.37,2013-08-01 16:58:00,
2013-08-01 20:00:00,87.8,46.5,29.65,North,0,3.5,3.5,24,0.00,CLR,,0.00,WeatherDisplay:10.37,2013-08-01 17:00:00,
2013-08-01 20:02:00,87.4,46.2,29.65,NNE,22,8.1,8.1,24,0.00,CLR,,0.00,WeatherDisplay:10.37,2013-08-01 17:02:00,
2013-08-01 20:05:00,87.1,45.9,29.65,NNW,338,9.2,9.2,24,0.00,CLR,,0.00,WeatherDisplay:10.37,2013-08-01 17:05:00,
2013-08-01 20:08:00,87.1,45.9,29.65,NNE,22,8.1,8.1,24,0.00,CLR,,0.00,WeatherDisplay:10.37,2013-08-01 17:08:00,
2013-08-01 20:11:00,86.7,45.6,29.65,North,0,13.8,13.8,24,0.00,CLR,,0.00,WeatherDisplay:10.37,2013-08-01 17:11:00,
2013-08-01 20:14:00,86.2,45.2,29.65,NE,45,8.5,8.5,24,0.00,CLR,,0.00,WeatherDisplay:10.37,2013-08-01 17:14:00,
2013-08-01 20:15:00,86.2,45.2,29.65,NE,45,8.5,8.5,24,0.00,CLR,,0.00,WeatherDisplay:10.37,2013-08-01 17:15:00,
2013-08-01 20:17:00,86.0,45.0,29.65,NE,45,9.2,9.2,24,0.00,CLR,,0.00,WeatherDisplay:10.37,2013-08-01 17:17:00,
2013-08-01 20:20:00,85.8,44.8,29.65,North,10,6.0,9.0,24,0.00,CLR,,0.00,WeatherDisplay:10.37,2013-08-01 17:20:00,
2013-08-01 20:22:00,85.5,44.5,29.65,NNE,22,5.8,5.8,24,0.00,CLR,,0.00,WeatherDisplay:10.37,2013-08-01 17:22:00,
2013-08-01 20:23:00,85.5,44.5,29.68,NNE,22,14.3,14.3,24,0.00,CLR,,0.00,WeatherDisplay:10.37,2013-08-01 17:23:00,
2013-08-01 20:25:00,85.1,44.2,29.68,NNW,338,12.7,12.7,24,0.00,CLR,,0.00,WeatherDisplay:10.37,2013-08-01 17:25:00,
2013-08-01 20:27:00,85.1,44.2,29.68,NE,45,8.1,8.1,24,0.00,CLR,,0.00,WeatherDisplay:10.37,2013-08-01 17:27:00,
2013-08-01 20:28:00,84.9,44.1,29.68,North,0,9.2,9.2,24,0.00,CLR,,0.00,WeatherDisplay:10.37,2013-08-01 17:28:00,
2013-08-01 20:33:00,84.7,43.9,29.68,NNE,22,9.2,9.2,24,0.00,CLR,,0.00,WeatherDisplay:10.37,2013-08-01 17:33:00,
2013-08-01 20:34:00,84.7,43.9,29.68,North,0,9.2,9.2,24,0.00,CLR,,0.00,WeatherDisplay:10.37,2013-08-01 17:34:00,
2013-08-01 20:37:00,84.4,43.6,29.68,NE,45,10.5,10.5,24,0.00,CLR,,0.00,WeatherDisplay:10.37,2013-08-01 17:37:00,
2013-08-01 20:38:00,84.4,43.6,29.65,NE,45,10.4,10.4,24,0.00,CLR,,0.00,WeatherDisplay:10.37,2013-08-01 17:38:00,
2013-08-01 20:39:00,84.4,43.6,29.65,NNW,338,10.4,10.4,24,0.00,CLR,,0.00,WeatherDisplay:10.37,2013-08-01 17:39:00,
2013-08-01 20:43:00,84.2,43.5,29.65,North,0,10.4,10.4,24,0.00,CLR,,0.00,WeatherDisplay:10.37,2013-08-01 17:43:00,
2013-08-01 20:45:00,84.1,43.4,29.65,NNE,13,7.0,13.0,24,0.00,CLR,,0.00,WeatherDisplay:10.37,2013-08-01 17:45:00,
2013-08-01 20:46:00,84.0,44.4,29.65,NE,45,8.1,8.1,25,0.00,CLR,,0.00,WeatherDisplay:10.37,2013-08-01 17:46:00,
2013-08-01 20:48:00,84.0,46.4,29.65,NNE,22,12.7,12.7,27,0.00,CLR,,0.00,WeatherDisplay:10.37,2013-08-01 17:48:00,
2013-08-01 20:50:00,83.8,46.3,29.65,North,0,11.5,11.5,27,0.00,CLR,,0.00,WeatherDisplay:10.37,2013-08-01 17:50:00,
2013-08-01 20:53:00,83.8,46.3,29.68,ENE,68,8.1,8.1,27,0.00,CLR,,0.00,WeatherDisplay:10.37,2013-08-01 17:53:00,
2013-08-01 20:57:00,83.7,46.1,29.68,North,0,10.4,10.4,27,0.00,CLR,,0.00,WeatherDisplay:10.37,2013-08-01 17:57:00,
2013-08-01 20:58:00,83.7,46.1,29.68,NNE,22,7.6,7.6,27,0.00,CLR,,0.00,WeatherDisplay:10.37,2013-08-01 17:58:00,
2013-08-01 20:59:00,83.7,46.1,29.68,NE,45,14.3,14.3,27,0.00,CLR,,0.00,WeatherDisplay:10.37,2013-08-01 17:59:00,
2013-08-01 21:04:00,83.7,46.1,29.68,North,0,9.2,9.2,27,0.00,CLR,,0.00,WeatherDisplay:10.37,2013-08-01 18:04:00,
2013-08-01 21:07:00,83.5,46.0,29.68,NNW,338,9.2,9.2,27,0.00,CLR,,0.00,WeatherDisplay:10.37,2013-08-01 18:07:00,
2013-08-01 21:10:00,83.5,46.0,29.68,North,3,7.0,10.0,27,0.00,CLR,,0.00,WeatherDisplay:10.37,2013-08-01 18:10:00,
2013-08-01 21:13:00,83.5,46.0,29.68,North,0,5.8,5.8,27,0.00,CLR,,0.00,WeatherDisplay:10.37,2013-08-01 18:13:00,
2013-08-01 21:15:00,83.3,45.8,29.68,North,0,8.1,8.1,27,0.00,CLR,,0.00,WeatherDisplay:10.37,2013-08-01 18:15:00,
2013-08-01 21:19:00,83.3,45.8,29.68,NNW,338,7.8,7.8,27,0.00,CLR,,0.00,WeatherDisplay:10.37,2013-08-01 18:19:00,
2013-08-01 21:21:00,83.3,45.8,29.68,North,0,5.8,5.8,27,0.00,CLR,,0.00,WeatherDisplay:10.37,2013-08-01 18:21:00,
2013-08-01 21:23:00,83.1,45.7,29.68,NNW,338,5.8,5.8,27,0.00,CLR,,0.00,WeatherDisplay:10.37,2013-08-01 18:23:00,
2013-08-01 21:24:00,83.1,45.7,29.68,NNW,338,5.8,5.8,27,0.00,CLR,,0.00,WeatherDisplay:10.37,2013-08-01 18:24:00,
2013-08-01 21:28:00,83.1,45.7,29.68,NNW,338,5.8,5.8,27,0.00,CLR,,0.00,WeatherDisplay:10.37,2013-08-01 18:28:00,
2013-08-01 21:30:00,83.1,45.7,29.68,ENE,68,5.8,5.8,27,0.00,CLR,,0.00,WeatherDisplay:10.37,2013-08-01 18:30:00,
2013-08-01 21:33:00,83.1,45.7,29.68,North,0,8.1,8.1,27,0.00,CLR,,0.00,WeatherDisplay:10.37,2013-08-01 18:33:00,
2013-08-01 21:35:00,83.1,45.6,29.68,North,4,3.0,8.0,27,0.00,CLR,,0.00,WeatherDisplay:10.37,2013-08-01 18:35:00,
2013-08-01 21:42:00,82.8,45.4,29.71,NNW,338,5.8,5.8,27,0.00,CLR,,0.00,WeatherDisplay:10.37,2013-08-01 18:42:00,
2013-08-01 21:43:00,82.8,45.4,29.71,NNE,22,4.6,4.6,27,0.00,CLR,,0.00,WeatherDisplay:10.37,2013-08-01 18:43:00,
2013-08-01 21:47:00,82.8,45.4,29.71,North,0,4.6,4.6,27,0.00,CLR,,0.00,WeatherDisplay:10.37,2013-08-01 18:47:00,
2013-08-01 21:48:00,82.8,45.4,29.71,NW,315,4.9,4.9,27,0.00,CLR,,0.00,WeatherDisplay:10.37,2013-08-01 18:48:00,
2013-08-01 21:52:00,82.8,45.4,29.71,NNW,338,4.6,4.6,27,0.00,CLR,,0.00,WeatherDisplay:10.37,2013-08-01 18:52:00,
2013-08-01 21:53:00,82.8,45.4,29.68,NNW,338,3.5,3.5,27,0.00,CLR,,0.00,WeatherDisplay:10.37,2013-08-01 18:53:00,
2013-08-01 21:57:00,82.6,45.2,29.68,WNW,292,9.2,9.2,27,0.00,CLR,,0.00,WeatherDisplay:10.37,2013-08-01 18:57:00,
2013-08-01 21:58:00,82.6,45.2,29.68,NNW,338,9.2,9.2,27,0.00,CLR,,0.00,WeatherDisplay:10.37,2013-08-01 18:58:00,
2013-08-01 22:04:00,82.6,45.2,29.68,North,0,2.3,2.4,27,0.00,CLR,,0.00,WeatherDisplay:10.37,2013-08-01 19:04:00,
2013-08-01 22:05:00,82.6,45.2,29.68,NNW,347,2.0,6.0,27,0.00,CLR,,0.00,WeatherDisplay:10.37,2013-08-01 19:05:00,
2013-08-01 22:10:00,82.4,45.1,29.65,NNW,335,2.0,5.0,27,0.00,CLR,,0.00,WeatherDisplay:10.37,2013-08-01 19:10:00,
2013-08-01 22:15:00,82.2,45.9,29.65,NNW,338,4.6,4.6,28,0.00,CLR,,0.00,WeatherDisplay:10.37,2013-08-01 19:15:00,
2013-08-01 22:17:00,82.2,45.9,29.65,North,0,3.5,3.5,28,0.00,CLR,,0.00,WeatherDisplay:10.37,2013-08-01 19:17:00,
2013-08-01 22:20:00,82.0,45.7,29.65,NNW,338,2.3,2.3,28,0.00,CLR,,0.00,WeatherDisplay:10.37,2013-08-01 19:20:00,
2013-08-01 22:23:00,82.0,45.7,29.68,NW,315,3.5,3.5,28,0.00,CLR,,0.00,WeatherDisplay:10.37,2013-08-01 19:23:00,
2013-08-01 22:25:00,82.0,47.5,29.68,WNW,292,5.9,5.9,30,0.00,CLR,,0.00,WeatherDisplay:10.37,2013-08-01 19:25:00,
2013-08-01 22:28:00,81.9,47.4,29.68,NNW,338,5.8,5.8,30,0.00,CLR,,0.00,WeatherDisplay:10.37,2013-08-01 19:28:00,
2013-08-01 22:30:00,81.9,47.4,29.68,NW,322,3.0,6.0,30,0.00,CLR,,0.00,WeatherDisplay:10.37,2013-08-01 19:30:00,
2013-08-01 22:33:00,81.9,47.4,29.68,NNW,338,3.5,3.5,30,0.00,CLR,,0.00,WeatherDisplay:10.37,2013-08-01 19:33:00,
2013-08-01 22:36:00,81.7,47.2,29.68,NNW,338,8.1,8.1,30,0.00,CLR,,0.00,WeatherDisplay:10.37,2013-08-01 19:36:00,
2013-08-01 22:39:00,81.7,47.2,29.68,NNE,22,10.4,10.4,30,0.00,CLR,,0.00,WeatherDisplay:10.37,2013-08-01 19:39:00,
2013-08-01 22:43:00,81.7,47.2,29.68,NW,315,6.9,6.9,30,0.00,CLR,,0.00,WeatherDisplay:10.37,2013-08-01 19:43:00,
2013-08-01 22:45:00,81.6,47.2,29.68,NNW,331,5.0,10.0,30,0.00,CLR,,0.00,WeatherDisplay:10.37,2013-08-01 19:45:00,
2013-08-01 22:49:00,81.5,47.1,29.68,NNW,338,5.8,5.8,30,0.00,CLR,,0.00,WeatherDisplay:10.37,2013-08-01 19:49:00,
2013-08-01 22:52:00,81.5,47.1,29.68,NNW,338,6.9,0.0,30,0.00,CLR,,0.00,WeatherDisplay:10.37,2013-08-01 19:52:00,
2013-08-01 22:57:00,81.5,47.9,29.68,WNW,292,9.2,9.2,31,0.00,CLR,,0.00,WeatherDisplay:10.37,2013-08-01 19:57:00,
2013-08-01 22:58:00,81.5,47.9,29.68,WNW,292,9.2,9.2,31,0.00,CLR,,0.00,WeatherDisplay:10.37,2013-08-01 19:58:00,
2013-08-01 22:59:00,81.5,47.9,29.68,NNW,338,8.1,8.1,31,0.00,CLR,,0.00,WeatherDisplay:10.37,2013-08-01 19:59:00,
2013-08-01 23:03:00,81.3,47.8,29.68,NNE,22,6.2,6.2,31,0.00,CLR,,0.00,WeatherDisplay:10.37,2013-08-01 20:03:00,
2013-08-01 23:05:00,81.3,47.8,29.68,NNW,338,6.2,6.2,31,0.00,CLR,,0.00,WeatherDisplay:10.37,2013-08-01 20:05:00,
2013-08-01 23:08:00,81.3,47.8,29.68,NW,315,5.8,5.8,31,0.00,CLR,,0.00,WeatherDisplay:10.37,2013-08-01 20:08:00,
2013-08-01 23:10:00,81.3,47.8,29.68,NNW,338,5.8,5.8,31,0.00,CLR,,0.00,WeatherDisplay:10.37,2013-08-01 20:10:00,
2013-08-01 23:14:00,81.1,47.6,29.68,North,0,6.2,6.2,31,0.00,CLR,,0.00,WeatherDisplay:10.37,2013-08-01 20:14:00,
2013-08-01 23:16:00,81.1,47.6,29.68,NNW,338,4.6,4.6,31,0.00,CLR,,0.00,WeatherDisplay:10.37,2013-08-01 20:16:00,
2013-08-01 23:21:00,81.1,47.6,29.68,NNW,338,5.8,5.8,31,0.00,CLR,,0.00,WeatherDisplay:10.37,2013-08-01 20:21:00,
2013-08-01 23:22:00,81.1,47.6,29.68,North,0,8.5,8.5,31,0.00,CLR,,0.00,WeatherDisplay:10.37,2013-08-01 20:22:00,
2013-08-01 23:28:00,81.0,47.5,29.68,NNW,338,5.9,5.9,31,0.00,CLR,,0.00,WeatherDisplay:10.37,2013-08-01 20:28:00,
2013-08-01 23:31:00,81.0,47.5,29.68,NNW,338,7.4,7.4,31,0.00,CLR,,0.00,WeatherDisplay:10.37,2013-08-01 20:31:00,
2013-08-01 23:33:00,81.0,47.5,29.68,NW,315,6.9,6.9,31,0.00,CLR,,0.00,WeatherDisplay:10.37,2013-08-01 20:33:00,
2013-08-01 23:36:00,80.8,47.3,29.68,NNW,338,8.1,8.1,31,0.00,CLR,,0.00,WeatherDisplay:10.37,2013-08-01 20:36:00,
2013-08-01 23:39:00,80.8,47.3,29.68,NNW,338,6.2,6.2,31,0.00,CLR,,0.00,WeatherDisplay:10.37,2013-08-01 20:39:00,
2013-08-01 23:42:00,80.8,47.3,29.68,NNW,338,8.1,8.1,31,0.00,CLR,,0.00,WeatherDisplay:10.37,2013-08-01 20:42:00,
2013-08-01 23:44:00,80.8,47.3,29.68,NNW,338,4.6,4.6,31,0.00,CLR,,0.00,WeatherDisplay:10.37,2013-08-01 20:44:00,
2013-08-01 23:47:00,80.8,47.3,29.68,North,0,5.8,5.8,31,0.00,CLR,,0.00,WeatherDisplay:10.37,2013-08-01 20:47:00,
2013-08-01 23:49:00,80.8,47.3,29.68,WNW,292,4.6,4.6,31,0.00,CLR,,0.00,WeatherDisplay:10.37,2013-08-01 20:49:00,
2013-08-01 23:53:00,80.8,47.3,29.68,NNW,338,5.8,5.8,31,0.00,CLR,,0.00,WeatherDisplay:10.37,2013-08-01 20:53:00,
2013-08-01 23:54:00,80.8,47.3,29.68,NNW,338,5.8,5.8,31,0.00,CLR,,0.00,WeatherDisplay:10.37,2013-08-01 20:54:00,
2013-08-01 23:55:00,80.8,47.3,29.68,NNW,338,5.8,5.8,31,0.00,CLR,,0.00,WeatherDisplay:10.37,2013-08-01 20:55:00,
2013-08-01 23:58:00,80.8,47.3,29.68,NNW,338,3.5,3.5,31,0.00,CLR,,0.00,WeatherDisplay:10.37,2013-08-01 20:58:00,